<?xml version='1.0' encoding='UTF-8'?><gpx version="1.1" creator="JPX - https://github.com/jenetics/jpx" xmlns="http://www.topografix.com/GPX/1/1"><trk><trkseg><trkpt lat="45.3961733" lon="8.8213883"><ele>100.0</ele><time>2026-03-29T12:17:00.224Z</time></trkpt><trkpt lat="45.3961533" lon="8.8215483"><ele>100.0</ele><time>2026-03-29T12:17:02.224Z</time></trkpt><trkpt lat="45.3961017" lon="8.82169"><ele>100.0</ele><time>2026-03-29T12:17:04.224Z</time></trkpt><trkpt lat="45.3960367" lon="8.82178"><ele>100.0</ele><time>2026-03-29T12:17:06.224Z</time></trkpt><trkpt lat="45.39594" lon="8.8218383"><ele>100.0</ele><time>2026-03-29T12:17:08.224Z</time></trkpt><trkpt lat="45.3958133" lon="8.8218983"><ele>100.0</ele><time>2026-03-29T12:17:10.224Z</time></trkpt><trkpt lat="45.3956867" lon="8.8219483"><ele>100.0</ele><time>2026-03-29T12:17:12.224Z</time></trkpt><trkpt lat="45.39558" lon="8.8220133"><ele>100.0</ele><time>2026-03-29T12:17:14.224Z</time></trkpt><trkpt lat="45.395495" lon="8.8220867"><ele>100.0</ele><time>2026-03-29T12:17:16.224Z</time></trkpt><trkpt lat="45.395425" lon="8.8221717"><ele>100.0</ele><time>2026-03-29T12:17:18.224Z</time></trkpt><trkpt lat="45.3953983" lon="8.8222967"><ele>100.0</ele><time>2026-03-29T12:17:20.224Z</time></trkpt><trkpt lat="45.3953517" lon="8.8224167"><ele>100.0</ele><time>2026-03-29T12:17:22.224Z</time></trkpt><trkpt lat="45.3952867" lon="8.8225133"><ele>100.0</ele><time>2026-03-29T12:17:24.224Z</time></trkpt><trkpt lat="45.395205" lon="8.822595"><ele>100.0</ele><time>2026-03-29T12:17:26.224Z</time></trkpt><trkpt lat="45.3951017" lon="8.8226767"><ele>100.0</ele><time>2026-03-29T12:17:28.224Z</time></trkpt><trkpt lat="45.395045" lon="8.822735"><ele>100.00000000000001</ele><time>2026-03-29T12:17:29.224Z</time></trkpt><trkpt lat="45.3949783" lon="8.8227817"><ele>100.0</ele><time>2026-03-29T12:17:30.225Z</time></trkpt><trkpt lat="45.394925" lon="8.8228467"><ele>100.0</ele><time>2026-03-29T12:17:31.224Z</time></trkpt><trkpt lat="45.394865" lon="8.8229"><ele>100.0</ele><time>2026-03-29T12:17:32.224Z</time></trkpt><trkpt lat="45.3948083" lon="8.8229517"><ele>100.00000000000001</ele><time>2026-03-29T12:17:33.224Z</time></trkpt><trkpt lat="45.3947433" lon="8.8229933"><ele>100.0</ele><time>2026-03-29T12:17:34.225Z</time></trkpt><trkpt lat="45.3946367" lon="8.8230967"><ele>99.83333333333334</ele><time>2026-03-29T12:17:36.224Z</time></trkpt><trkpt lat="45.3945817" lon="8.8231467"><ele>99.66666666666667</ele><time>2026-03-29T12:17:37.224Z</time></trkpt><trkpt lat="45.3945233" lon="8.8231933"><ele>99.5</ele><time>2026-03-29T12:17:38.224Z</time></trkpt><trkpt lat="45.3944217" lon="8.8232833"><ele>99.33333333333334</ele><time>2026-03-29T12:17:40.225Z</time></trkpt><trkpt lat="45.394365" lon="8.8233367"><ele>99.16666666666667</ele><time>2026-03-29T12:17:41.225Z</time></trkpt><trkpt lat="45.39431" lon="8.823385"><ele>99.0</ele><time>2026-03-29T12:17:42.224Z</time></trkpt><trkpt lat="45.3942133" lon="8.8234867"><ele>99.0</ele><time>2026-03-29T12:17:44.224Z</time></trkpt><trkpt lat="45.3941567" lon="8.8235283"><ele>99.0</ele><time>2026-03-29T12:17:45.224Z</time></trkpt><trkpt lat="45.3940933" lon="8.8235733"><ele>99.0</ele><time>2026-03-29T12:17:46.225Z</time></trkpt><trkpt lat="45.3939833" lon="8.8236467"><ele>99.0</ele><time>2026-03-29T12:17:48.225Z</time></trkpt><trkpt lat="45.3938933" lon="8.82372"><ele>99.0</ele><time>2026-03-29T12:17:50.225Z</time></trkpt><trkpt lat="45.39386" lon="8.8238367"><ele>99.0</ele><time>2026-03-29T12:17:52.224Z</time></trkpt><trkpt lat="45.3938733" lon="8.82399"><ele>99.0</ele><time>2026-03-29T12:17:54.224Z</time></trkpt><trkpt lat="45.393895" lon="8.824075"><ele>99.0</ele><time>2026-03-29T12:17:55.224Z</time></trkpt><trkpt lat="45.3939167" lon="8.82416"><ele>99.0</ele><time>2026-03-29T12:17:56.224Z</time></trkpt><trkpt lat="45.3939367" lon="8.824255"><ele>99.0</ele><time>2026-03-29T12:17:57.224Z</time></trkpt><trkpt lat="45.3939567" lon="8.8243567"><ele>99.0</ele><time>2026-03-29T12:17:58.224Z</time></trkpt><trkpt lat="45.3939767" lon="8.824445"><ele>99.0</ele><time>2026-03-29T12:17:59.224Z</time></trkpt><trkpt lat="45.3940067" lon="8.82457"><ele>99.0</ele><time>2026-03-29T12:18:01.225Z</time></trkpt><trkpt lat="45.39403" lon="8.824685"><ele>98.6</ele><time>2026-03-29T12:18:03.224Z</time></trkpt><trkpt lat="45.3940133" lon="8.824775"><ele>98.2</ele><time>2026-03-29T12:18:05.224Z</time></trkpt><trkpt lat="45.3939367" lon="8.8248217"><ele>97.8</ele><time>2026-03-29T12:18:07.224Z</time></trkpt><trkpt lat="45.3938083" lon="8.82487"><ele>97.39999999999999</ele><time>2026-03-29T12:18:09.224Z</time></trkpt><trkpt lat="45.393735" lon="8.8249067"><ele>97.0</ele><time>2026-03-29T12:18:10.224Z</time></trkpt><trkpt lat="45.3936467" lon="8.8249417"><ele>97.00000000000001</ele><time>2026-03-29T12:18:11.224Z</time></trkpt><trkpt lat="45.3935617" lon="8.8249917"><ele>97.0</ele><time>2026-03-29T12:18:12.225Z</time></trkpt><trkpt lat="45.393475" lon="8.8250333"><ele>97.0</ele><time>2026-03-29T12:18:13.224Z</time></trkpt><trkpt lat="45.39339" lon="8.8250833"><ele>97.0</ele><time>2026-03-29T12:18:14.225Z</time></trkpt><trkpt lat="45.3933083" lon="8.8251267"><ele>97.00000000000001</ele><time>2026-03-29T12:18:15.224Z</time></trkpt><trkpt lat="45.39323" lon="8.82517"><ele>97.0</ele><time>2026-03-29T12:18:16.225Z</time></trkpt><trkpt lat="45.3931417" lon="8.8251967"><ele>97.00000000000001</ele><time>2026-03-29T12:18:17.225Z</time></trkpt><trkpt lat="45.393065" lon="8.8252383"><ele>97.0</ele><time>2026-03-29T12:18:18.224Z</time></trkpt><trkpt lat="45.392995" lon="8.8252817"><ele>97.0</ele><time>2026-03-29T12:18:19.224Z</time></trkpt><trkpt lat="45.39293" lon="8.82532"><ele>97.0</ele><time>2026-03-29T12:18:20.224Z</time></trkpt><trkpt lat="45.3928617" lon="8.825345"><ele>97.00000000000001</ele><time>2026-03-29T12:18:21.224Z</time></trkpt><trkpt lat="45.3927383" lon="8.8253983"><ele>97.0</ele><time>2026-03-29T12:18:23.225Z</time></trkpt><trkpt lat="45.392675" lon="8.8254283"><ele>97.0</ele><time>2026-03-29T12:18:24.224Z</time></trkpt><trkpt lat="45.3926117" lon="8.8254617"><ele>97.0</ele><time>2026-03-29T12:18:25.224Z</time></trkpt><trkpt lat="45.3925483" lon="8.8254867"><ele>97.0</ele><time>2026-03-29T12:18:26.224Z</time></trkpt><trkpt lat="45.392435" lon="8.8255483"><ele>97.0</ele><time>2026-03-29T12:18:28.224Z</time></trkpt><trkpt lat="45.3923317" lon="8.8255917"><ele>97.0</ele><time>2026-03-29T12:18:30.224Z</time></trkpt><trkpt lat="45.39222" lon="8.825645"><ele>97.0</ele><time>2026-03-29T12:18:32.225Z</time></trkpt><trkpt lat="45.39211" lon="8.8257017"><ele>97.0</ele><time>2026-03-29T12:18:34.224Z</time></trkpt><trkpt lat="45.392005" lon="8.825765"><ele>97.0</ele><time>2026-03-29T12:18:36.225Z</time></trkpt><trkpt lat="45.3918983" lon="8.8258433"><ele>97.0</ele><time>2026-03-29T12:18:38.224Z</time></trkpt><trkpt lat="45.3917917" lon="8.82592"><ele>97.00000000000001</ele><time>2026-03-29T12:18:40.225Z</time></trkpt><trkpt lat="45.3917317" lon="8.825955"><ele>97.0</ele><time>2026-03-29T12:18:41.224Z</time></trkpt><trkpt lat="45.3916217" lon="8.82602"><ele>97.0</ele><time>2026-03-29T12:18:43.224Z</time></trkpt><trkpt lat="45.3915633" lon="8.826055"><ele>97.0</ele><time>2026-03-29T12:18:44.225Z</time></trkpt><trkpt lat="45.3915033" lon="8.826095"><ele>97.00000000000001</ele><time>2026-03-29T12:18:45.224Z</time></trkpt><trkpt lat="45.3914367" lon="8.8261317"><ele>97.0</ele><time>2026-03-29T12:18:46.224Z</time></trkpt><trkpt lat="45.3913767" lon="8.82617"><ele>97.5</ele><time>2026-03-29T12:18:47.224Z</time></trkpt><trkpt lat="45.3913183" lon="8.8262133"><ele>98.0</ele><time>2026-03-29T12:18:48.224Z</time></trkpt><trkpt lat="45.3912" lon="8.82629"><ele>98.5</ele><time>2026-03-29T12:18:50.224Z</time></trkpt><trkpt lat="45.3910883" lon="8.8263467"><ele>99.0</ele><time>2026-03-29T12:18:52.224Z</time></trkpt><trkpt lat="45.3909167" lon="8.8264733"><ele>99.0</ele><time>2026-03-29T12:18:53.471Z</time></trkpt><trkpt lat="45.3908433" lon="8.82653"><ele>99.0</ele><time>2026-03-29T12:18:55.726Z</time></trkpt><trkpt lat="45.390705" lon="8.8266"><ele>99.0</ele><time>2026-03-29T12:18:58.227Z</time></trkpt><trkpt lat="45.3905983" lon="8.8266783"><ele>99.0</ele><time>2026-03-29T12:19:00.226Z</time></trkpt><trkpt lat="45.3904983" lon="8.826745"><ele>98.6</ele><time>2026-03-29T12:19:02.227Z</time></trkpt><trkpt lat="45.3903967" lon="8.8268067"><ele>98.2</ele><time>2026-03-29T12:19:04.227Z</time></trkpt><trkpt lat="45.3902983" lon="8.8268717"><ele>97.8</ele><time>2026-03-29T12:19:06.227Z</time></trkpt><trkpt lat="45.390215" lon="8.8269467"><ele>97.39999999999999</ele><time>2026-03-29T12:19:08.227Z</time></trkpt><trkpt lat="45.39011" lon="8.8270117"><ele>97.0</ele><time>2026-03-29T12:19:10.227Z</time></trkpt><trkpt lat="45.390005" lon="8.8270767"><ele>97.0</ele><time>2026-03-29T12:19:12.226Z</time></trkpt><trkpt lat="45.38991" lon="8.8271367"><ele>97.0</ele><time>2026-03-29T12:19:14.226Z</time></trkpt><trkpt lat="45.389835" lon="8.8271883"><ele>97.0</ele><time>2026-03-29T12:19:16.226Z</time></trkpt><trkpt lat="45.38976" lon="8.82725"><ele>97.0</ele><time>2026-03-29T12:19:18.226Z</time></trkpt><trkpt lat="45.3897167" lon="8.8273733"><ele>97.0</ele><time>2026-03-29T12:19:20.226Z</time></trkpt><trkpt lat="45.3897167" lon="8.827535"><ele>96.83333333333334</ele><time>2026-03-29T12:19:22.226Z</time></trkpt><trkpt lat="45.3896983" lon="8.8276883"><ele>96.66666666666667</ele><time>2026-03-29T12:19:24.226Z</time></trkpt><trkpt lat="45.3896517" lon="8.8278383"><ele>96.5</ele><time>2026-03-29T12:19:26.226Z</time></trkpt><trkpt lat="45.38962" lon="8.8279183"><ele>96.33333333333334</ele><time>2026-03-29T12:19:27.226Z</time></trkpt><trkpt lat="45.3895833" lon="8.8279967"><ele>96.16666666666667</ele><time>2026-03-29T12:19:28.226Z</time></trkpt><trkpt lat="45.389545" lon="8.8280783"><ele>96.0</ele><time>2026-03-29T12:19:29.226Z</time></trkpt><trkpt lat="45.389505" lon="8.8281517"><ele>96.4</ele><time>2026-03-29T12:19:30.226Z</time></trkpt><trkpt lat="45.3894383" lon="8.82826"><ele>96.8</ele><time>2026-03-29T12:19:32.226Z</time></trkpt><trkpt lat="45.3893683" lon="8.8283467"><ele>97.2</ele><time>2026-03-29T12:19:34.226Z</time></trkpt><trkpt lat="45.389275" lon="8.8284233"><ele>97.60000000000001</ele><time>2026-03-29T12:19:36.226Z</time></trkpt><trkpt lat="45.3891883" lon="8.8284983"><ele>98.0</ele><time>2026-03-29T12:19:38.226Z</time></trkpt><trkpt lat="45.3891367" lon="8.828575"><ele>98.0</ele><time>2026-03-29T12:19:40.226Z</time></trkpt><trkpt lat="45.3890683" lon="8.8286683"><ele>98.0</ele><time>2026-03-29T12:19:42.227Z</time></trkpt><trkpt lat="45.3889767" lon="8.8287517"><ele>98.0</ele><time>2026-03-29T12:19:44.226Z</time></trkpt><trkpt lat="45.3888983" lon="8.82882"><ele>98.0</ele><time>2026-03-29T12:19:46.226Z</time></trkpt><trkpt lat="45.3888117" lon="8.8289"><ele>98.0</ele><time>2026-03-29T12:19:48.226Z</time></trkpt><trkpt lat="45.388735" lon="8.82898"><ele>98.0</ele><time>2026-03-29T12:19:50.227Z</time></trkpt><trkpt lat="45.3886767" lon="8.82902"><ele>98.0</ele><time>2026-03-29T12:19:51.226Z</time></trkpt><trkpt lat="45.3886017" lon="8.8290617"><ele>98.0</ele><time>2026-03-29T12:19:52.227Z</time></trkpt><trkpt lat="45.3885333" lon="8.829105"><ele>98.0</ele><time>2026-03-29T12:19:53.226Z</time></trkpt><trkpt lat="45.3884717" lon="8.8291367"><ele>98.0</ele><time>2026-03-29T12:19:54.226Z</time></trkpt><trkpt lat="45.3883917" lon="8.82917"><ele>98.0</ele><time>2026-03-29T12:19:55.226Z</time></trkpt><trkpt lat="45.3883183" lon="8.8292033"><ele>98.0</ele><time>2026-03-29T12:19:56.227Z</time></trkpt><trkpt lat="45.38825" lon="8.8292383"><ele>97.99999999999999</ele><time>2026-03-29T12:19:57.227Z</time></trkpt><trkpt lat="45.3881633" lon="8.8292833"><ele>98.0</ele><time>2026-03-29T12:19:58.227Z</time></trkpt><trkpt lat="45.3880967" lon="8.8293217"><ele>98.0</ele><time>2026-03-29T12:19:59.226Z</time></trkpt><trkpt lat="45.3880133" lon="8.8293667"><ele>98.0</ele><time>2026-03-29T12:20:00.226Z</time></trkpt><trkpt lat="45.387945" lon="8.82942"><ele>97.99999999999999</ele><time>2026-03-29T12:20:01.226Z</time></trkpt><trkpt lat="45.3878783" lon="8.8294633"><ele>98.0</ele><time>2026-03-29T12:20:02.226Z</time></trkpt><trkpt lat="45.3878167" lon="8.829505"><ele>97.99999999999999</ele><time>2026-03-29T12:20:03.226Z</time></trkpt><trkpt lat="45.3877517" lon="8.8295617"><ele>98.0</ele><time>2026-03-29T12:20:04.226Z</time></trkpt><trkpt lat="45.3876967" lon="8.8296267"><ele>98.0</ele><time>2026-03-29T12:20:05.227Z</time></trkpt><trkpt lat="45.38763" lon="8.829735"><ele>98.0</ele><time>2026-03-29T12:20:07.227Z</time></trkpt><trkpt lat="45.3875683" lon="8.8298783"><ele>97.99999999999999</ele><time>2026-03-29T12:20:09.227Z</time></trkpt><trkpt lat="45.387535" lon="8.8299567"><ele>98.0</ele><time>2026-03-29T12:20:10.226Z</time></trkpt><trkpt lat="45.3874917" lon="8.8300233"><ele>98.0</ele><time>2026-03-29T12:20:11.226Z</time></trkpt><trkpt lat="45.3873867" lon="8.8301083"><ele>98.0</ele><time>2026-03-29T12:20:13.227Z</time></trkpt><trkpt lat="45.3872567" lon="8.8301767"><ele>98.0</ele><time>2026-03-29T12:20:15.226Z</time></trkpt><trkpt lat="45.3871717" lon="8.830215"><ele>98.0</ele><time>2026-03-29T12:20:16.226Z</time></trkpt><trkpt lat="45.3870867" lon="8.8302367"><ele>98.0</ele><time>2026-03-29T12:20:17.226Z</time></trkpt><trkpt lat="45.3870133" lon="8.830255"><ele>98.16666666666666</ele><time>2026-03-29T12:20:18.226Z</time></trkpt><trkpt lat="45.386935" lon="8.8302833"><ele>98.33333333333333</ele><time>2026-03-29T12:20:19.226Z</time></trkpt><trkpt lat="45.38686" lon="8.83032"><ele>98.5</ele><time>2026-03-29T12:20:20.226Z</time></trkpt><trkpt lat="45.3867967" lon="8.83036"><ele>98.66666666666666</ele><time>2026-03-29T12:20:21.226Z</time></trkpt><trkpt lat="45.38673" lon="8.8303933"><ele>98.83333333333333</ele><time>2026-03-29T12:20:22.226Z</time></trkpt><trkpt lat="45.3866683" lon="8.8304267"><ele>99.0</ele><time>2026-03-29T12:20:23.226Z</time></trkpt><trkpt lat="45.3865567" lon="8.8304867"><ele>99.0</ele><time>2026-03-29T12:20:25.226Z</time></trkpt><trkpt lat="45.3864583" lon="8.830555"><ele>99.0</ele><time>2026-03-29T12:20:27.226Z</time></trkpt><trkpt lat="45.38636" lon="8.8306283"><ele>99.0</ele><time>2026-03-29T12:20:29.227Z</time></trkpt><trkpt lat="45.3862633" lon="8.8307167"><ele>99.0</ele><time>2026-03-29T12:20:31.226Z</time></trkpt><trkpt lat="45.38616" lon="8.8308067"><ele>98.75</ele><time>2026-03-29T12:20:33.226Z</time></trkpt><trkpt lat="45.3860583" lon="8.83089"><ele>98.5</ele><time>2026-03-29T12:20:35.226Z</time></trkpt><trkpt lat="45.3859583" lon="8.8309467"><ele>98.25</ele><time>2026-03-29T12:20:37.226Z</time></trkpt><trkpt lat="45.3858533" lon="8.830985"><ele>98.0</ele><time>2026-03-29T12:20:39.226Z</time></trkpt><trkpt lat="45.3857383" lon="8.8310583"><ele>98.0</ele><time>2026-03-29T12:20:41.226Z</time></trkpt><trkpt lat="45.38568" lon="8.8311033"><ele>98.0</ele><time>2026-03-29T12:20:42.227Z</time></trkpt><trkpt lat="45.3856317" lon="8.8311617"><ele>98.0</ele><time>2026-03-29T12:20:43.226Z</time></trkpt><trkpt lat="45.385585" lon="8.8312383"><ele>98.0</ele><time>2026-03-29T12:20:44.226Z</time></trkpt><trkpt lat="45.385535" lon="8.8313133"><ele>98.0</ele><time>2026-03-29T12:20:45.227Z</time></trkpt><trkpt lat="45.3854933" lon="8.8313883"><ele>98.0</ele><time>2026-03-29T12:20:46.226Z</time></trkpt><trkpt lat="45.3854517" lon="8.8314567"><ele>98.0</ele><time>2026-03-29T12:20:47.226Z</time></trkpt><trkpt lat="45.385375" lon="8.8315933"><ele>98.0</ele><time>2026-03-29T12:20:49.226Z</time></trkpt><trkpt lat="45.3853067" lon="8.8317267"><ele>98.0</ele><time>2026-03-29T12:20:51.226Z</time></trkpt><trkpt lat="45.38524" lon="8.8318617"><ele>98.0</ele><time>2026-03-29T12:20:53.226Z</time></trkpt><trkpt lat="45.3851633" lon="8.8320067"><ele>98.0</ele><time>2026-03-29T12:20:55.226Z</time></trkpt><trkpt lat="45.385125" lon="8.8320883"><ele>98.0</ele><time>2026-03-29T12:20:56.226Z</time></trkpt><trkpt lat="45.3850833" lon="8.8321717"><ele>97.99999999999999</ele><time>2026-03-29T12:20:57.226Z</time></trkpt><trkpt lat="45.3850417" lon="8.8322533"><ele>98.0</ele><time>2026-03-29T12:20:58.226Z</time></trkpt><trkpt lat="45.3849933" lon="8.83233"><ele>98.0</ele><time>2026-03-29T12:20:59.226Z</time></trkpt><trkpt lat="45.3849483" lon="8.8323983"><ele>98.0</ele><time>2026-03-29T12:21:00.226Z</time></trkpt><trkpt lat="45.38489" lon="8.8325183"><ele>97.99999999999999</ele><time>2026-03-29T12:21:02.226Z</time></trkpt><trkpt lat="45.3848333" lon="8.8326433"><ele>98.0</ele><time>2026-03-29T12:21:04.226Z</time></trkpt><trkpt lat="45.3847517" lon="8.832775"><ele>98.80000000000001</ele><time>2026-03-29T12:21:06.226Z</time></trkpt><trkpt lat="45.3846633" lon="8.83287"><ele>99.6</ele><time>2026-03-29T12:21:08.226Z</time></trkpt><trkpt lat="45.3845733" lon="8.8329883"><ele>100.4</ele><time>2026-03-29T12:21:10.226Z</time></trkpt><trkpt lat="45.3845083" lon="8.8330517"><ele>101.19999999999999</ele><time>2026-03-29T12:21:11.226Z</time></trkpt><trkpt lat="45.384445" lon="8.8331217"><ele>102.0</ele><time>2026-03-29T12:21:12.226Z</time></trkpt><trkpt lat="45.384385" lon="8.8331817"><ele>102.0</ele><time>2026-03-29T12:21:13.226Z</time></trkpt><trkpt lat="45.38433" lon="8.833245"><ele>102.0</ele><time>2026-03-29T12:21:14.226Z</time></trkpt><trkpt lat="45.3842333" lon="8.8333633"><ele>102.0</ele><time>2026-03-29T12:21:16.227Z</time></trkpt><trkpt lat="45.3841833" lon="8.8334267"><ele>102.0</ele><time>2026-03-29T12:21:17.227Z</time></trkpt><trkpt lat="45.3840983" lon="8.8335383"><ele>102.0</ele><time>2026-03-29T12:21:19.226Z</time></trkpt><trkpt lat="45.3840317" lon="8.833655"><ele>102.0</ele><time>2026-03-29T12:21:21.226Z</time></trkpt><trkpt lat="45.3839767" lon="8.833775"><ele>102.0</ele><time>2026-03-29T12:21:23.227Z</time></trkpt><trkpt lat="45.38391" lon="8.833915"><ele>102.0</ele><time>2026-03-29T12:21:25.226Z</time></trkpt><trkpt lat="45.38385" lon="8.8340483"><ele>102.0</ele><time>2026-03-29T12:21:27.226Z</time></trkpt><trkpt lat="45.3837817" lon="8.83417"><ele>102.0</ele><time>2026-03-29T12:21:29.226Z</time></trkpt><trkpt lat="45.3837133" lon="8.8343067"><ele>101.6</ele><time>2026-03-29T12:21:31.226Z</time></trkpt><trkpt lat="45.3836433" lon="8.83444"><ele>101.19999999999999</ele><time>2026-03-29T12:21:33.226Z</time></trkpt><trkpt lat="45.383575" lon="8.834585"><ele>100.8</ele><time>2026-03-29T12:21:35.226Z</time></trkpt><trkpt lat="45.3835133" lon="8.8347217"><ele>100.4</ele><time>2026-03-29T12:21:37.226Z</time></trkpt><trkpt lat="45.3834833" lon="8.8348017"><ele>100.0</ele><time>2026-03-29T12:21:38.226Z</time></trkpt><trkpt lat="45.38345" lon="8.8348783"><ele>100.00000000000001</ele><time>2026-03-29T12:21:39.226Z</time></trkpt><trkpt lat="45.38341" lon="8.8349517"><ele>100.0</ele><time>2026-03-29T12:21:40.226Z</time></trkpt><trkpt lat="45.3833717" lon="8.8350367"><ele>100.0</ele><time>2026-03-29T12:21:41.227Z</time></trkpt><trkpt lat="45.3833367" lon="8.83512"><ele>100.0</ele><time>2026-03-29T12:21:42.226Z</time></trkpt><trkpt lat="45.3832933" lon="8.8352"><ele>100.00000000000001</ele><time>2026-03-29T12:21:43.226Z</time></trkpt><trkpt lat="45.383215" lon="8.835315"><ele>100.0</ele><time>2026-03-29T12:21:45.227Z</time></trkpt><trkpt lat="45.3831233" lon="8.8353767"><ele>100.00000000000001</ele><time>2026-03-29T12:21:47.226Z</time></trkpt><trkpt lat="45.38302" lon="8.8354133"><ele>100.0</ele><time>2026-03-29T12:21:49.226Z</time></trkpt><trkpt lat="45.3829067" lon="8.8354533"><ele>100.0</ele><time>2026-03-29T12:21:51.227Z</time></trkpt><trkpt lat="45.3828333" lon="8.8354767"><ele>100.0</ele><time>2026-03-29T12:21:52.226Z</time></trkpt><trkpt lat="45.3827617" lon="8.8355017"><ele>100.00000000000001</ele><time>2026-03-29T12:21:53.226Z</time></trkpt><trkpt lat="45.3826983" lon="8.8355183"><ele>100.0</ele><time>2026-03-29T12:21:54.226Z</time></trkpt><trkpt lat="45.3826267" lon="8.8355367"><ele>100.16666666666667</ele><time>2026-03-29T12:21:55.227Z</time></trkpt><trkpt lat="45.38256" lon="8.8355567"><ele>100.33333333333334</ele><time>2026-03-29T12:21:56.227Z</time></trkpt><trkpt lat="45.3824967" lon="8.835575"><ele>100.5</ele><time>2026-03-29T12:21:57.227Z</time></trkpt><trkpt lat="45.382365" lon="8.835615"><ele>100.66666666666666</ele><time>2026-03-29T12:21:59.226Z</time></trkpt><trkpt lat="45.3822917" lon="8.8356417"><ele>100.83333333333333</ele><time>2026-03-29T12:22:00.226Z</time></trkpt><trkpt lat="45.3822233" lon="8.83566"><ele>101.0</ele><time>2026-03-29T12:22:01.227Z</time></trkpt><trkpt lat="45.38215" lon="8.835675"><ele>101.16666666666666</ele><time>2026-03-29T12:22:02.226Z</time></trkpt><trkpt lat="45.3820833" lon="8.8356817"><ele>101.33333333333333</ele><time>2026-03-29T12:22:03.226Z</time></trkpt><trkpt lat="45.3820133" lon="8.8356817"><ele>101.5</ele><time>2026-03-29T12:22:04.226Z</time></trkpt><trkpt lat="45.3819317" lon="8.8356917"><ele>101.66666666666666</ele><time>2026-03-29T12:22:05.226Z</time></trkpt><trkpt lat="45.38186" lon="8.8357"><ele>101.83333333333333</ele><time>2026-03-29T12:22:06.226Z</time></trkpt><trkpt lat="45.38179" lon="8.8357033"><ele>102.0</ele><time>2026-03-29T12:22:07.227Z</time></trkpt><trkpt lat="45.381675" lon="8.8357"><ele>102.0</ele><time>2026-03-29T12:22:09.226Z</time></trkpt><trkpt lat="45.3815533" lon="8.835685"><ele>102.0</ele><time>2026-03-29T12:22:11.227Z</time></trkpt><trkpt lat="45.3814883" lon="8.835685"><ele>102.0</ele><time>2026-03-29T12:22:12.226Z</time></trkpt><trkpt lat="45.38142" lon="8.8356867"><ele>102.0</ele><time>2026-03-29T12:22:13.226Z</time></trkpt><trkpt lat="45.381355" lon="8.8356883"><ele>102.0</ele><time>2026-03-29T12:22:14.226Z</time></trkpt><trkpt lat="45.3812833" lon="8.8356883"><ele>102.0</ele><time>2026-03-29T12:22:15.227Z</time></trkpt><trkpt lat="45.3812167" lon="8.8356767"><ele>100.8</ele><time>2026-03-29T12:22:16.227Z</time></trkpt><trkpt lat="45.381095" lon="8.83566"><ele>99.6</ele><time>2026-03-29T12:22:18.227Z</time></trkpt><trkpt lat="45.381035" lon="8.8356283"><ele>98.39999999999999</ele><time>2026-03-29T12:22:19.227Z</time></trkpt><trkpt lat="45.38098" lon="8.8355833"><ele>97.19999999999999</ele><time>2026-03-29T12:22:20.226Z</time></trkpt><trkpt lat="45.3808683" lon="8.8355233"><ele>96.0</ele><time>2026-03-29T12:22:22.226Z</time></trkpt><trkpt lat="45.380765" lon="8.8354817"><ele>96.0</ele><time>2026-03-29T12:22:24.226Z</time></trkpt><trkpt lat="45.3806483" lon="8.8354667"><ele>96.0</ele><time>2026-03-29T12:22:26.227Z</time></trkpt><trkpt lat="45.380575" lon="8.8354683"><ele>96.0</ele><time>2026-03-29T12:22:27.226Z</time></trkpt><trkpt lat="45.3804583" lon="8.8354633"><ele>96.0</ele><time>2026-03-29T12:22:29.226Z</time></trkpt><trkpt lat="45.380345" lon="8.8354717"><ele>96.0</ele><time>2026-03-29T12:22:31.226Z</time></trkpt><trkpt lat="45.3802817" lon="8.83548"><ele>96.19999999999999</ele><time>2026-03-29T12:22:32.226Z</time></trkpt><trkpt lat="45.380175" lon="8.8354733"><ele>96.39999999999999</ele><time>2026-03-29T12:22:34.226Z</time></trkpt><trkpt lat="45.38006" lon="8.8354717"><ele>96.6</ele><time>2026-03-29T12:22:36.227Z</time></trkpt><trkpt lat="45.37995" lon="8.8354717"><ele>96.8</ele><time>2026-03-29T12:22:38.226Z</time></trkpt><trkpt lat="45.37987" lon="8.8354683"><ele>97.0</ele><time>2026-03-29T12:22:40.226Z</time></trkpt><trkpt lat="45.37977" lon="8.8354733"><ele>96.83333333333334</ele><time>2026-03-29T12:22:42.226Z</time></trkpt><trkpt lat="45.379665" lon="8.8354717"><ele>96.66666666666667</ele><time>2026-03-29T12:22:44.226Z</time></trkpt><trkpt lat="45.3795667" lon="8.8354767"><ele>96.5</ele><time>2026-03-29T12:22:46.226Z</time></trkpt><trkpt lat="45.3795" lon="8.8354783"><ele>96.33333333333334</ele><time>2026-03-29T12:22:47.226Z</time></trkpt><trkpt lat="45.379425" lon="8.8354733"><ele>96.16666666666667</ele><time>2026-03-29T12:22:48.226Z</time></trkpt><trkpt lat="45.3793333" lon="8.8354767"><ele>96.0</ele><time>2026-03-29T12:22:49.226Z</time></trkpt><trkpt lat="45.3792533" lon="8.835465"><ele>96.0</ele><time>2026-03-29T12:22:50.227Z</time></trkpt><trkpt lat="45.3791783" lon="8.8354483"><ele>96.0</ele><time>2026-03-29T12:22:51.226Z</time></trkpt><trkpt lat="45.3791083" lon="8.8354317"><ele>96.0</ele><time>2026-03-29T12:22:52.226Z</time></trkpt><trkpt lat="45.3790167" lon="8.8353983"><ele>96.0</ele><time>2026-03-29T12:22:54.226Z</time></trkpt><trkpt lat="45.3789467" lon="8.8353683"><ele>96.0</ele><time>2026-03-29T12:22:56.226Z</time></trkpt><trkpt lat="45.3789683" lon="8.83546"><ele>96.0</ele><time>2026-03-29T12:23:08.227Z</time></trkpt><trkpt lat="45.378905" lon="8.8354217"><ele>96.16666666666667</ele><time>2026-03-29T12:24:51.226Z</time></trkpt><trkpt lat="45.3788333" lon="8.8353617"><ele>96.33333333333334</ele><time>2026-03-29T12:24:54.226Z</time></trkpt><trkpt lat="45.3787933" lon="8.8352917"><ele>96.5</ele><time>2026-03-29T12:24:56.227Z</time></trkpt><trkpt lat="45.3787533" lon="8.835195"><ele>96.66666666666667</ele><time>2026-03-29T12:24:58.226Z</time></trkpt><trkpt lat="45.3787167" lon="8.8350867"><ele>96.83333333333334</ele><time>2026-03-29T12:25:00.226Z</time></trkpt><trkpt lat="45.3786683" lon="8.8349417"><ele>97.0</ele><time>2026-03-29T12:25:02.226Z</time></trkpt><trkpt lat="45.3786267" lon="8.83484"><ele>97.0</ele><time>2026-03-29T12:25:03.226Z</time></trkpt><trkpt lat="45.3785867" lon="8.8347317"><ele>97.0</ele><time>2026-03-29T12:25:04.227Z</time></trkpt><trkpt lat="45.37855" lon="8.83461"><ele>97.0</ele><time>2026-03-29T12:25:05.227Z</time></trkpt><trkpt lat="45.3785067" lon="8.8344533"><ele>97.0</ele><time>2026-03-29T12:25:06.226Z</time></trkpt><trkpt lat="45.3784683" lon="8.8342633"><ele>97.0</ele><time>2026-03-29T12:25:07.226Z</time></trkpt><trkpt lat="45.3784333" lon="8.8340833"><ele>96.5</ele><time>2026-03-29T12:25:08.226Z</time></trkpt><trkpt lat="45.3784033" lon="8.83389"><ele>96.0</ele><time>2026-03-29T12:25:09.226Z</time></trkpt><trkpt lat="45.3784033" lon="8.8336833"><ele>95.5</ele><time>2026-03-29T12:25:10.226Z</time></trkpt><trkpt lat="45.3783917" lon="8.833525"><ele>95.0</ele><time>2026-03-29T12:25:11.226Z</time></trkpt><trkpt lat="45.3783967" lon="8.833355"><ele>95.0</ele><time>2026-03-29T12:25:12.226Z</time></trkpt><trkpt lat="45.3783933" lon="8.8331733"><ele>95.0</ele><time>2026-03-29T12:25:13.226Z</time></trkpt><trkpt lat="45.378375" lon="8.83303"><ele>95.0</ele><time>2026-03-29T12:25:14.226Z</time></trkpt><trkpt lat="45.3783567" lon="8.832895"><ele>95.0</ele><time>2026-03-29T12:25:15.226Z</time></trkpt><trkpt lat="45.3783367" lon="8.83276"><ele>95.0</ele><time>2026-03-29T12:25:16.227Z</time></trkpt><trkpt lat="45.378315" lon="8.83262"><ele>95.2</ele><time>2026-03-29T12:25:17.226Z</time></trkpt><trkpt lat="45.3782917" lon="8.83247"><ele>95.4</ele><time>2026-03-29T12:25:18.226Z</time></trkpt><trkpt lat="45.3782733" lon="8.832315"><ele>95.6</ele><time>2026-03-29T12:25:19.226Z</time></trkpt><trkpt lat="45.3782533" lon="8.8321567"><ele>95.8</ele><time>2026-03-29T12:25:20.226Z</time></trkpt><trkpt lat="45.3782383" lon="8.832005"><ele>96.0</ele><time>2026-03-29T12:25:21.226Z</time></trkpt><trkpt lat="45.3782183" lon="8.8318683"><ele>96.19999999999999</ele><time>2026-03-29T12:25:22.227Z</time></trkpt><trkpt lat="45.3781983" lon="8.8317367"><ele>96.39999999999999</ele><time>2026-03-29T12:25:23.227Z</time></trkpt><trkpt lat="45.378185" lon="8.8315967"><ele>96.6</ele><time>2026-03-29T12:25:24.227Z</time></trkpt><trkpt lat="45.378165" lon="8.8314533"><ele>96.8</ele><time>2026-03-29T12:25:25.226Z</time></trkpt><trkpt lat="45.3781367" lon="8.8312917"><ele>97.0</ele><time>2026-03-29T12:25:26.226Z</time></trkpt><trkpt lat="45.3781117" lon="8.8311467"><ele>97.0</ele><time>2026-03-29T12:25:27.226Z</time></trkpt><trkpt lat="45.3780883" lon="8.8309917"><ele>97.0</ele><time>2026-03-29T12:25:28.226Z</time></trkpt><trkpt lat="45.378065" lon="8.830835"><ele>97.0</ele><time>2026-03-29T12:25:29.226Z</time></trkpt><trkpt lat="45.378045" lon="8.8306933"><ele>97.0</ele><time>2026-03-29T12:25:30.226Z</time></trkpt><trkpt lat="45.37802" lon="8.8305633"><ele>97.0</ele><time>2026-03-29T12:25:31.226Z</time></trkpt><trkpt lat="45.377995" lon="8.83044"><ele>97.00000000000001</ele><time>2026-03-29T12:25:32.226Z</time></trkpt><trkpt lat="45.3779683" lon="8.830315"><ele>97.0</ele><time>2026-03-29T12:25:33.226Z</time></trkpt><trkpt lat="45.3779483" lon="8.8301967"><ele>97.0</ele><time>2026-03-29T12:25:34.227Z</time></trkpt><trkpt lat="45.3779217" lon="8.8300767"><ele>97.0</ele><time>2026-03-29T12:25:35.227Z</time></trkpt><trkpt lat="45.3778933" lon="8.829955"><ele>97.00000000000001</ele><time>2026-03-29T12:25:36.226Z</time></trkpt><trkpt lat="45.3778733" lon="8.8298383"><ele>97.0</ele><time>2026-03-29T12:25:37.226Z</time></trkpt><trkpt lat="45.3778433" lon="8.8297217"><ele>97.83333333333334</ele><time>2026-03-29T12:25:38.226Z</time></trkpt><trkpt lat="45.37781" lon="8.829615"><ele>98.66666666666667</ele><time>2026-03-29T12:25:39.226Z</time></trkpt><trkpt lat="45.37777" lon="8.82951"><ele>99.5</ele><time>2026-03-29T12:25:40.226Z</time></trkpt><trkpt lat="45.377725" lon="8.8294117"><ele>100.33333333333334</ele><time>2026-03-29T12:25:41.227Z</time></trkpt><trkpt lat="45.3776933" lon="8.829305"><ele>101.16666666666667</ele><time>2026-03-29T12:25:42.226Z</time></trkpt><trkpt lat="45.377665" lon="8.8292033"><ele>102.0</ele><time>2026-03-29T12:25:43.226Z</time></trkpt><trkpt lat="45.3776333" lon="8.8291183"><ele>103.0</ele><time>2026-03-29T12:25:44.226Z</time></trkpt><trkpt lat="45.3775433" lon="8.8289867"><ele>104.0</ele><time>2026-03-29T12:25:46.226Z</time></trkpt><trkpt lat="45.377485" lon="8.8289483"><ele>104.99999999999999</ele><time>2026-03-29T12:25:47.226Z</time></trkpt><trkpt lat="45.3773433" lon="8.8289083"><ele>106.0</ele><time>2026-03-29T12:25:49.226Z</time></trkpt><trkpt lat="45.3772367" lon="8.828865"><ele>107.0</ele><time>2026-03-29T12:25:50.226Z</time></trkpt><trkpt lat="45.377135" lon="8.8288217"><ele>107.0</ele><time>2026-03-29T12:25:51.227Z</time></trkpt><trkpt lat="45.37704" lon="8.8287633"><ele>106.99999999999999</ele><time>2026-03-29T12:25:52.226Z</time></trkpt><trkpt lat="45.3769567" lon="8.8287"><ele>106.99999999999999</ele><time>2026-03-29T12:25:53.226Z</time></trkpt><trkpt lat="45.3768817" lon="8.8286283"><ele>107.0</ele><time>2026-03-29T12:25:54.226Z</time></trkpt><trkpt lat="45.376815" lon="8.8285583"><ele>107.0</ele><time>2026-03-29T12:25:55.226Z</time></trkpt><trkpt lat="45.3767517" lon="8.8284833"><ele>107.66666666666666</ele><time>2026-03-29T12:25:56.226Z</time></trkpt><trkpt lat="45.37669" lon="8.8284083"><ele>108.33333333333333</ele><time>2026-03-29T12:25:57.226Z</time></trkpt><trkpt lat="45.3766283" lon="8.8283317"><ele>109.0</ele><time>2026-03-29T12:25:58.226Z</time></trkpt><trkpt lat="45.37656" lon="8.828255"><ele>109.66666666666666</ele><time>2026-03-29T12:25:59.226Z</time></trkpt><trkpt lat="45.3764917" lon="8.82818"><ele>110.33333333333333</ele><time>2026-03-29T12:26:00.226Z</time></trkpt><trkpt lat="45.37642" lon="8.8281067"><ele>111.0</ele><time>2026-03-29T12:26:01.226Z</time></trkpt><trkpt lat="45.3763417" lon="8.8280383"><ele>111.0</ele><time>2026-03-29T12:26:02.227Z</time></trkpt><trkpt lat="45.3762633" lon="8.8279667"><ele>111.0</ele><time>2026-03-29T12:26:03.226Z</time></trkpt><trkpt lat="45.3761967" lon="8.8278967"><ele>111.0</ele><time>2026-03-29T12:26:04.227Z</time></trkpt><trkpt lat="45.3761333" lon="8.8278283"><ele>111.0</ele><time>2026-03-29T12:26:05.227Z</time></trkpt><trkpt lat="45.3760617" lon="8.827755"><ele>111.0</ele><time>2026-03-29T12:26:06.226Z</time></trkpt><trkpt lat="45.3759933" lon="8.8276767"><ele>111.0</ele><time>2026-03-29T12:26:07.226Z</time></trkpt><trkpt lat="45.3759317" lon="8.8276"><ele>111.0</ele><time>2026-03-29T12:26:08.226Z</time></trkpt><trkpt lat="45.3758683" lon="8.827515"><ele>111.0</ele><time>2026-03-29T12:26:09.226Z</time></trkpt><trkpt lat="45.3758" lon="8.82743"><ele>111.0</ele><time>2026-03-29T12:26:10.227Z</time></trkpt><trkpt lat="45.3757283" lon="8.8273483"><ele>111.0</ele><time>2026-03-29T12:26:11.227Z</time></trkpt><trkpt lat="45.37565" lon="8.8272683"><ele>111.0</ele><time>2026-03-29T12:26:12.226Z</time></trkpt><trkpt lat="45.3755667" lon="8.8271933"><ele>111.33333333333333</ele><time>2026-03-29T12:26:13.226Z</time></trkpt><trkpt lat="45.3754833" lon="8.82712"><ele>111.66666666666666</ele><time>2026-03-29T12:26:14.226Z</time></trkpt><trkpt lat="45.3754033" lon="8.8270517"><ele>112.0</ele><time>2026-03-29T12:26:15.227Z</time></trkpt><trkpt lat="45.3753333" lon="8.82698"><ele>112.33333333333333</ele><time>2026-03-29T12:26:16.226Z</time></trkpt><trkpt lat="45.37526" lon="8.8269233"><ele>112.66666666666666</ele><time>2026-03-29T12:26:17.226Z</time></trkpt><trkpt lat="45.3751917" lon="8.82686"><ele>113.0</ele><time>2026-03-29T12:26:18.226Z</time></trkpt><trkpt lat="45.375115" lon="8.8268083"><ele>112.99999999999999</ele><time>2026-03-29T12:26:19.226Z</time></trkpt><trkpt lat="45.375045" lon="8.8267467"><ele>113.0</ele><time>2026-03-29T12:26:20.227Z</time></trkpt><trkpt lat="45.3749717" lon="8.8266817"><ele>113.0</ele><time>2026-03-29T12:26:21.226Z</time></trkpt><trkpt lat="45.3748967" lon="8.826625"><ele>113.0</ele><time>2026-03-29T12:26:22.226Z</time></trkpt><trkpt lat="45.3748233" lon="8.8265683"><ele>112.99999999999999</ele><time>2026-03-29T12:26:23.227Z</time></trkpt><trkpt lat="45.3747617" lon="8.826515"><ele>113.0</ele><time>2026-03-29T12:26:24.226Z</time></trkpt><trkpt lat="45.3747067" lon="8.8264617"><ele>113.2</ele><time>2026-03-29T12:26:25.226Z</time></trkpt><trkpt lat="45.37462" lon="8.8264283"><ele>113.4</ele><time>2026-03-29T12:26:27.226Z</time></trkpt><trkpt lat="45.3745467" lon="8.8265233"><ele>113.60000000000001</ele><time>2026-03-29T12:26:29.226Z</time></trkpt><trkpt lat="45.3744633" lon="8.82663"><ele>113.80000000000001</ele><time>2026-03-29T12:26:31.227Z</time></trkpt><trkpt lat="45.3744083" lon="8.8266867"><ele>114.0</ele><time>2026-03-29T12:26:32.227Z</time></trkpt><trkpt lat="45.3742867" lon="8.8268117"><ele>113.6</ele><time>2026-03-29T12:26:34.227Z</time></trkpt><trkpt lat="45.3742067" lon="8.826895"><ele>113.2</ele><time>2026-03-29T12:26:35.226Z</time></trkpt><trkpt lat="45.3741283" lon="8.8269733"><ele>112.79999999999998</ele><time>2026-03-29T12:26:36.226Z</time></trkpt><trkpt lat="45.374065" lon="8.8270433"><ele>112.39999999999999</ele><time>2026-03-29T12:26:37.226Z</time></trkpt><trkpt lat="45.3739917" lon="8.8271183"><ele>112.0</ele><time>2026-03-29T12:26:38.226Z</time></trkpt><trkpt lat="45.373905" lon="8.82719"><ele>111.83333333333334</ele><time>2026-03-29T12:26:39.226Z</time></trkpt><trkpt lat="45.3738317" lon="8.8272583"><ele>111.66666666666667</ele><time>2026-03-29T12:26:40.226Z</time></trkpt><trkpt lat="45.3737717" lon="8.82732"><ele>111.5</ele><time>2026-03-29T12:26:41.227Z</time></trkpt><trkpt lat="45.37372" lon="8.8273883"><ele>111.33333333333334</ele><time>2026-03-29T12:26:42.226Z</time></trkpt><trkpt lat="45.37365" lon="8.8274433"><ele>111.16666666666667</ele><time>2026-03-29T12:26:43.226Z</time></trkpt><trkpt lat="45.3735867" lon="8.8275033"><ele>111.0</ele><time>2026-03-29T12:26:44.227Z</time></trkpt><trkpt lat="45.3735233" lon="8.8275617"><ele>111.0</ele><time>2026-03-29T12:26:45.226Z</time></trkpt><trkpt lat="45.3734583" lon="8.827625"><ele>111.0</ele><time>2026-03-29T12:26:46.227Z</time></trkpt><trkpt lat="45.3734017" lon="8.8276867"><ele>111.0</ele><time>2026-03-29T12:26:47.226Z</time></trkpt><trkpt lat="45.37334" lon="8.8277483"><ele>111.0</ele><time>2026-03-29T12:26:48.226Z</time></trkpt><trkpt lat="45.37328" lon="8.8278167"><ele>111.0</ele><time>2026-03-29T12:26:49.226Z</time></trkpt><trkpt lat="45.3732167" lon="8.827895"><ele>111.0</ele><time>2026-03-29T12:26:50.226Z</time></trkpt><trkpt lat="45.3731567" lon="8.8279533"><ele>111.0</ele><time>2026-03-29T12:26:51.226Z</time></trkpt><trkpt lat="45.3730967" lon="8.828025"><ele>111.0</ele><time>2026-03-29T12:26:52.226Z</time></trkpt><trkpt lat="45.3730383" lon="8.82808"><ele>111.0</ele><time>2026-03-29T12:26:53.227Z</time></trkpt><trkpt lat="45.3729783" lon="8.8281317"><ele>111.0</ele><time>2026-03-29T12:26:54.226Z</time></trkpt><trkpt lat="45.372925" lon="8.82819"><ele>111.0</ele><time>2026-03-29T12:26:55.226Z</time></trkpt><trkpt lat="45.3728733" lon="8.82825"><ele>111.0</ele><time>2026-03-29T12:26:56.226Z</time></trkpt><trkpt lat="45.3731183" lon="8.82823"><ele>111.0</ele><time>2026-03-29T12:26:58.073Z</time></trkpt><trkpt lat="45.3726217" lon="8.8284567"><ele>111.33333333333333</ele><time>2026-03-29T12:27:00.727Z</time></trkpt><trkpt lat="45.3725917" lon="8.8285817"><ele>111.66666666666666</ele><time>2026-03-29T12:27:02.727Z</time></trkpt><trkpt lat="45.3725667" lon="8.828675"><ele>112.0</ele><time>2026-03-29T12:27:04.227Z</time></trkpt><trkpt lat="45.3725083" lon="8.8287867"><ele>112.33333333333333</ele><time>2026-03-29T12:27:06.227Z</time></trkpt><trkpt lat="45.3724083" lon="8.8288017"><ele>112.66666666666666</ele><time>2026-03-29T12:27:07.227Z</time></trkpt><trkpt lat="45.3723333" lon="8.828835"><ele>113.0</ele><time>2026-03-29T12:27:08.227Z</time></trkpt><trkpt lat="45.3722583" lon="8.8288783"><ele>112.60000000000001</ele><time>2026-03-29T12:27:09.227Z</time></trkpt><trkpt lat="45.3721733" lon="8.8289317"><ele>112.20000000000002</ele><time>2026-03-29T12:27:10.227Z</time></trkpt><trkpt lat="45.3720783" lon="8.8289917"><ele>111.8</ele><time>2026-03-29T12:27:11.227Z</time></trkpt><trkpt lat="45.371985" lon="8.8290467"><ele>111.4</ele><time>2026-03-29T12:27:12.227Z</time></trkpt><trkpt lat="45.37189" lon="8.8290967"><ele>111.0</ele><time>2026-03-29T12:27:13.227Z</time></trkpt><trkpt lat="45.3718017" lon="8.829135"><ele>111.0</ele><time>2026-03-29T12:27:14.228Z</time></trkpt><trkpt lat="45.3717183" lon="8.8291867"><ele>111.0</ele><time>2026-03-29T12:27:15.227Z</time></trkpt><trkpt lat="45.371635" lon="8.8292333"><ele>111.0</ele><time>2026-03-29T12:27:16.227Z</time></trkpt><trkpt lat="45.3715583" lon="8.8292783"><ele>111.0</ele><time>2026-03-29T12:27:17.227Z</time></trkpt><trkpt lat="45.3714833" lon="8.8293183"><ele>111.0</ele><time>2026-03-29T12:27:18.227Z</time></trkpt><trkpt lat="45.3714133" lon="8.829355"><ele>111.0</ele><time>2026-03-29T12:27:19.227Z</time></trkpt><trkpt lat="45.37134" lon="8.829395"><ele>111.0</ele><time>2026-03-29T12:27:20.227Z</time></trkpt><trkpt lat="45.3712617" lon="8.8294267"><ele>111.0</ele><time>2026-03-29T12:27:21.228Z</time></trkpt><trkpt lat="45.37119" lon="8.8294633"><ele>111.0</ele><time>2026-03-29T12:27:22.227Z</time></trkpt><trkpt lat="45.3711017" lon="8.82951"><ele>111.0</ele><time>2026-03-29T12:27:23.227Z</time></trkpt><trkpt lat="45.3710233" lon="8.8295567"><ele>111.0</ele><time>2026-03-29T12:27:24.228Z</time></trkpt><trkpt lat="45.3709417" lon="8.8295983"><ele>111.0</ele><time>2026-03-29T12:27:25.227Z</time></trkpt><trkpt lat="45.3708583" lon="8.829645"><ele>111.0</ele><time>2026-03-29T12:27:26.228Z</time></trkpt><trkpt lat="45.37078" lon="8.8296867"><ele>111.0</ele><time>2026-03-29T12:27:27.228Z</time></trkpt><trkpt lat="45.370695" lon="8.8297283"><ele>111.0</ele><time>2026-03-29T12:27:28.227Z</time></trkpt><trkpt lat="45.370635" lon="8.8297717"><ele>111.0</ele><time>2026-03-29T12:27:29.228Z</time></trkpt><trkpt lat="45.3705617" lon="8.82981"><ele>111.0</ele><time>2026-03-29T12:27:30.227Z</time></trkpt><trkpt lat="45.37048" lon="8.82985"><ele>111.0</ele><time>2026-03-29T12:27:31.227Z</time></trkpt><trkpt lat="45.3704033" lon="8.829885"><ele>111.0</ele><time>2026-03-29T12:27:32.227Z</time></trkpt><trkpt lat="45.370305" lon="8.82992"><ele>111.0</ele><time>2026-03-29T12:27:33.227Z</time></trkpt><trkpt lat="45.370215" lon="8.82997"><ele>111.0</ele><time>2026-03-29T12:27:34.227Z</time></trkpt><trkpt lat="45.370145" lon="8.8300117"><ele>111.0</ele><time>2026-03-29T12:27:35.228Z</time></trkpt><trkpt lat="45.37006" lon="8.8300583"><ele>111.0</ele><time>2026-03-29T12:27:36.227Z</time></trkpt><trkpt lat="45.3699817" lon="8.8301"><ele>111.0</ele><time>2026-03-29T12:27:37.227Z</time></trkpt><trkpt lat="45.3699067" lon="8.8301333"><ele>111.19999999999999</ele><time>2026-03-29T12:27:38.228Z</time></trkpt><trkpt lat="45.3698317" lon="8.83018"><ele>111.39999999999999</ele><time>2026-03-29T12:27:39.228Z</time></trkpt><trkpt lat="45.36976" lon="8.8302167"><ele>111.6</ele><time>2026-03-29T12:27:40.227Z</time></trkpt><trkpt lat="45.3696183" lon="8.8302917"><ele>111.8</ele><time>2026-03-29T12:27:42.227Z</time></trkpt><trkpt lat="45.369535" lon="8.8303317"><ele>112.0</ele><time>2026-03-29T12:27:43.227Z</time></trkpt><trkpt lat="45.36946" lon="8.8303733"><ele>112.00000000000001</ele><time>2026-03-29T12:27:44.227Z</time></trkpt><trkpt lat="45.3693783" lon="8.8304133"><ele>112.0</ele><time>2026-03-29T12:27:45.227Z</time></trkpt><trkpt lat="45.369305" lon="8.8304533"><ele>112.0</ele><time>2026-03-29T12:27:46.227Z</time></trkpt><trkpt lat="45.36922" lon="8.8304933"><ele>112.0</ele><time>2026-03-29T12:27:47.227Z</time></trkpt><trkpt lat="45.3691417" lon="8.830535"><ele>112.00000000000001</ele><time>2026-03-29T12:27:48.227Z</time></trkpt><trkpt lat="45.36907" lon="8.8305817"><ele>112.0</ele><time>2026-03-29T12:27:49.228Z</time></trkpt><trkpt lat="45.3689933" lon="8.8306167"><ele>112.0</ele><time>2026-03-29T12:27:50.227Z</time></trkpt><trkpt lat="45.368925" lon="8.8306517"><ele>112.0</ele><time>2026-03-29T12:27:51.227Z</time></trkpt><trkpt lat="45.36885" lon="8.8307033"><ele>112.0</ele><time>2026-03-29T12:27:52.227Z</time></trkpt><trkpt lat="45.3687883" lon="8.830745"><ele>112.0</ele><time>2026-03-29T12:27:53.227Z</time></trkpt><trkpt lat="45.36872" lon="8.8307783"><ele>112.0</ele><time>2026-03-29T12:27:54.227Z</time></trkpt><trkpt lat="45.3686533" lon="8.830815"><ele>112.0</ele><time>2026-03-29T12:27:55.227Z</time></trkpt><trkpt lat="45.368585" lon="8.83084"><ele>112.0</ele><time>2026-03-29T12:27:56.227Z</time></trkpt><trkpt lat="45.3684683" lon="8.8309033"><ele>111.8</ele><time>2026-03-29T12:27:58.227Z</time></trkpt><trkpt lat="45.3683733" lon="8.8309633"><ele>111.6</ele><time>2026-03-29T12:28:00.227Z</time></trkpt><trkpt lat="45.3683" lon="8.8310017"><ele>111.39999999999999</ele><time>2026-03-29T12:28:02.227Z</time></trkpt><trkpt lat="45.3682317" lon="8.83104"><ele>111.19999999999999</ele><time>2026-03-29T12:28:04.228Z</time></trkpt><trkpt lat="45.36812" lon="8.8311067"><ele>111.0</ele><time>2026-03-29T12:28:06.228Z</time></trkpt><trkpt lat="45.36805" lon="8.831145"><ele>110.8</ele><time>2026-03-29T12:28:07.227Z</time></trkpt><trkpt lat="45.3679667" lon="8.8311917"><ele>110.6</ele><time>2026-03-29T12:28:08.227Z</time></trkpt><trkpt lat="45.3678733" lon="8.8312483"><ele>110.4</ele><time>2026-03-29T12:28:09.227Z</time></trkpt><trkpt lat="45.3677717" lon="8.8313"><ele>110.2</ele><time>2026-03-29T12:28:10.227Z</time></trkpt><trkpt lat="45.3676617" lon="8.831355"><ele>110.0</ele><time>2026-03-29T12:28:11.227Z</time></trkpt><trkpt lat="45.3675467" lon="8.8314183"><ele>110.0</ele><time>2026-03-29T12:28:12.227Z</time></trkpt><trkpt lat="45.3674267" lon="8.8314883"><ele>110.0</ele><time>2026-03-29T12:28:13.227Z</time></trkpt><trkpt lat="45.3673067" lon="8.8315583"><ele>110.0</ele><time>2026-03-29T12:28:14.227Z</time></trkpt><trkpt lat="45.3672083" lon="8.8316133"><ele>110.0</ele><time>2026-03-29T12:28:15.228Z</time></trkpt><trkpt lat="45.3671033" lon="8.831685"><ele>110.2</ele><time>2026-03-29T12:28:16.227Z</time></trkpt><trkpt lat="45.3670033" lon="8.8317533"><ele>110.4</ele><time>2026-03-29T12:28:17.227Z</time></trkpt><trkpt lat="45.3669083" lon="8.831805"><ele>110.6</ele><time>2026-03-29T12:28:18.227Z</time></trkpt><trkpt lat="45.36681" lon="8.8318633"><ele>110.8</ele><time>2026-03-29T12:28:19.227Z</time></trkpt><trkpt lat="45.36671" lon="8.83192"><ele>111.0</ele><time>2026-03-29T12:28:20.228Z</time></trkpt><trkpt lat="45.3666033" lon="8.8319833"><ele>111.0</ele><time>2026-03-29T12:28:21.227Z</time></trkpt><trkpt lat="45.36649" lon="8.8320483"><ele>111.0</ele><time>2026-03-29T12:28:22.227Z</time></trkpt><trkpt lat="45.366375" lon="8.8321167"><ele>111.0</ele><time>2026-03-29T12:28:23.227Z</time></trkpt><trkpt lat="45.3662583" lon="8.8321767"><ele>111.0</ele><time>2026-03-29T12:28:24.227Z</time></trkpt><trkpt lat="45.36615" lon="8.8322433"><ele>111.19999999999999</ele><time>2026-03-29T12:28:25.227Z</time></trkpt><trkpt lat="45.3660467" lon="8.8323083"><ele>111.39999999999999</ele><time>2026-03-29T12:28:26.228Z</time></trkpt><trkpt lat="45.3659483" lon="8.8323667"><ele>111.6</ele><time>2026-03-29T12:28:27.227Z</time></trkpt><trkpt lat="45.3658483" lon="8.8324283"><ele>111.8</ele><time>2026-03-29T12:28:28.227Z</time></trkpt><trkpt lat="45.3657533" lon="8.83248"><ele>112.0</ele><time>2026-03-29T12:28:29.227Z</time></trkpt><trkpt lat="45.3656633" lon="8.8325317"><ele>112.00000000000001</ele><time>2026-03-29T12:28:30.227Z</time></trkpt><trkpt lat="45.365585" lon="8.8325833"><ele>112.0</ele><time>2026-03-29T12:28:31.227Z</time></trkpt><trkpt lat="45.3655183" lon="8.8326217"><ele>112.0</ele><time>2026-03-29T12:28:32.227Z</time></trkpt><trkpt lat="45.36545" lon="8.8326633"><ele>112.0</ele><time>2026-03-29T12:28:33.227Z</time></trkpt><trkpt lat="45.36539" lon="8.8327033"><ele>112.00000000000001</ele><time>2026-03-29T12:28:34.228Z</time></trkpt><trkpt lat="45.3652933" lon="8.8327667"><ele>112.0</ele><time>2026-03-29T12:28:36.227Z</time></trkpt><trkpt lat="45.3652133" lon="8.8328117"><ele>111.83333333333334</ele><time>2026-03-29T12:28:38.228Z</time></trkpt><trkpt lat="45.3651433" lon="8.83287"><ele>111.66666666666667</ele><time>2026-03-29T12:28:40.227Z</time></trkpt><trkpt lat="45.3650583" lon="8.832915"><ele>111.5</ele><time>2026-03-29T12:28:42.227Z</time></trkpt><trkpt lat="45.3649967" lon="8.8329533"><ele>111.33333333333334</ele><time>2026-03-29T12:28:43.227Z</time></trkpt><trkpt lat="45.3649333" lon="8.8329917"><ele>111.16666666666667</ele><time>2026-03-29T12:28:44.227Z</time></trkpt><trkpt lat="45.364865" lon="8.83304"><ele>111.0</ele><time>2026-03-29T12:28:45.227Z</time></trkpt><trkpt lat="45.3647917" lon="8.8330983"><ele>111.0</ele><time>2026-03-29T12:28:46.228Z</time></trkpt><trkpt lat="45.3647317" lon="8.8331433"><ele>111.0</ele><time>2026-03-29T12:28:47.227Z</time></trkpt><trkpt lat="45.3646567" lon="8.8331867"><ele>111.0</ele><time>2026-03-29T12:28:48.227Z</time></trkpt><trkpt lat="45.3645783" lon="8.8332317"><ele>111.0</ele><time>2026-03-29T12:28:49.227Z</time></trkpt><trkpt lat="45.364505" lon="8.83326"><ele>111.0</ele><time>2026-03-29T12:28:50.228Z</time></trkpt><trkpt lat="45.36444" lon="8.83329"><ele>111.0</ele><time>2026-03-29T12:28:51.228Z</time></trkpt><trkpt lat="45.364365" lon="8.83333"><ele>110.85714285714285</ele><time>2026-03-29T12:28:52.227Z</time></trkpt><trkpt lat="45.36429" lon="8.833365"><ele>110.71428571428572</ele><time>2026-03-29T12:28:53.228Z</time></trkpt><trkpt lat="45.3642317" lon="8.8334033"><ele>110.57142857142857</ele><time>2026-03-29T12:28:54.227Z</time></trkpt><trkpt lat="45.364165" lon="8.8334433"><ele>110.42857142857142</ele><time>2026-03-29T12:28:55.227Z</time></trkpt><trkpt lat="45.3641017" lon="8.8334767"><ele>110.28571428571428</ele><time>2026-03-29T12:28:56.228Z</time></trkpt><trkpt lat="45.3640433" lon="8.8335133"><ele>110.14285714285714</ele><time>2026-03-29T12:28:57.227Z</time></trkpt><trkpt lat="45.3639817" lon="8.8335583"><ele>110.0</ele><time>2026-03-29T12:28:58.227Z</time></trkpt><trkpt lat="45.36392" lon="8.83361"><ele>109.99999999999999</ele><time>2026-03-29T12:28:59.228Z</time></trkpt><trkpt lat="45.363855" lon="8.8336617"><ele>110.0</ele><time>2026-03-29T12:29:00.228Z</time></trkpt><trkpt lat="45.36379" lon="8.83372"><ele>110.0</ele><time>2026-03-29T12:29:01.228Z</time></trkpt><trkpt lat="45.3637333" lon="8.83376"><ele>110.0</ele><time>2026-03-29T12:29:02.227Z</time></trkpt><trkpt lat="45.3636733" lon="8.8338033"><ele>110.0</ele><time>2026-03-29T12:29:03.227Z</time></trkpt><trkpt lat="45.36361" lon="8.833855"><ele>109.99999999999999</ele><time>2026-03-29T12:29:04.227Z</time></trkpt><trkpt lat="45.3635483" lon="8.8338967"><ele>110.0</ele><time>2026-03-29T12:29:05.227Z</time></trkpt><trkpt lat="45.3634783" lon="8.8339333"><ele>109.99999999999999</ele><time>2026-03-29T12:29:06.227Z</time></trkpt><trkpt lat="45.3634083" lon="8.833965"><ele>110.0</ele><time>2026-03-29T12:29:07.227Z</time></trkpt><trkpt lat="45.363345" lon="8.8340033"><ele>110.0</ele><time>2026-03-29T12:29:08.227Z</time></trkpt><trkpt lat="45.3632783" lon="8.83404"><ele>110.0</ele><time>2026-03-29T12:29:09.227Z</time></trkpt><trkpt lat="45.3632117" lon="8.83408"><ele>110.0</ele><time>2026-03-29T12:29:10.227Z</time></trkpt><trkpt lat="45.3631433" lon="8.8341217"><ele>109.99999999999999</ele><time>2026-03-29T12:29:11.227Z</time></trkpt><trkpt lat="45.3630733" lon="8.8341533"><ele>110.0</ele><time>2026-03-29T12:29:12.228Z</time></trkpt><trkpt lat="45.363" lon="8.834195"><ele>109.99999999999999</ele><time>2026-03-29T12:29:13.227Z</time></trkpt><trkpt lat="45.36293" lon="8.83424"><ele>110.0</ele><time>2026-03-29T12:29:14.227Z</time></trkpt><trkpt lat="45.3628667" lon="8.834285"><ele>110.0</ele><time>2026-03-29T12:29:15.228Z</time></trkpt><trkpt lat="45.362805" lon="8.834325"><ele>110.0</ele><time>2026-03-29T12:29:16.227Z</time></trkpt><trkpt lat="45.36274" lon="8.83436"><ele>110.0</ele><time>2026-03-29T12:29:17.227Z</time></trkpt><trkpt lat="45.3626817" lon="8.834395"><ele>109.99999999999999</ele><time>2026-03-29T12:29:18.227Z</time></trkpt><trkpt lat="45.362615" lon="8.8344383"><ele>110.0</ele><time>2026-03-29T12:29:19.227Z</time></trkpt><trkpt lat="45.3625567" lon="8.8344767"><ele>109.99999999999999</ele><time>2026-03-29T12:29:20.228Z</time></trkpt><trkpt lat="45.3624933" lon="8.8345083"><ele>110.0</ele><time>2026-03-29T12:29:21.227Z</time></trkpt><trkpt lat="45.36237" lon="8.83459"><ele>110.0</ele><time>2026-03-29T12:29:23.227Z</time></trkpt><trkpt lat="45.36231" lon="8.8346383"><ele>110.0</ele><time>2026-03-29T12:29:24.228Z</time></trkpt><trkpt lat="45.362245" lon="8.834685"><ele>109.99999999999999</ele><time>2026-03-29T12:29:25.227Z</time></trkpt><trkpt lat="45.3621767" lon="8.8347333"><ele>110.0</ele><time>2026-03-29T12:29:26.227Z</time></trkpt><trkpt lat="45.3621" lon="8.83478"><ele>110.16666666666666</ele><time>2026-03-29T12:29:27.228Z</time></trkpt><trkpt lat="45.36203" lon="8.8348217"><ele>110.33333333333333</ele><time>2026-03-29T12:29:28.228Z</time></trkpt><trkpt lat="45.361965" lon="8.8348633"><ele>110.5</ele><time>2026-03-29T12:29:29.227Z</time></trkpt><trkpt lat="45.3618467" lon="8.8349267"><ele>110.66666666666666</ele><time>2026-03-29T12:29:31.227Z</time></trkpt><trkpt lat="45.3617883" lon="8.8349733"><ele>110.83333333333333</ele><time>2026-03-29T12:29:32.227Z</time></trkpt><trkpt lat="45.3617233" lon="8.8350267"><ele>111.0</ele><time>2026-03-29T12:29:33.227Z</time></trkpt><trkpt lat="45.3616517" lon="8.8350817"><ele>111.0</ele><time>2026-03-29T12:29:34.227Z</time></trkpt><trkpt lat="45.3615867" lon="8.8351267"><ele>111.0</ele><time>2026-03-29T12:29:35.228Z</time></trkpt><trkpt lat="45.361525" lon="8.83518"><ele>111.0</ele><time>2026-03-29T12:29:36.227Z</time></trkpt><trkpt lat="45.3614633" lon="8.8352433"><ele>111.0</ele><time>2026-03-29T12:29:37.227Z</time></trkpt><trkpt lat="45.36141" lon="8.835295"><ele>111.0</ele><time>2026-03-29T12:29:38.227Z</time></trkpt><trkpt lat="45.3613467" lon="8.8353317"><ele>111.0</ele><time>2026-03-29T12:29:39.227Z</time></trkpt><trkpt lat="45.3612867" lon="8.8353767"><ele>111.0</ele><time>2026-03-29T12:29:40.227Z</time></trkpt><trkpt lat="45.3612283" lon="8.8354183"><ele>110.85714285714285</ele><time>2026-03-29T12:29:41.227Z</time></trkpt><trkpt lat="45.3611717" lon="8.835465"><ele>110.71428571428572</ele><time>2026-03-29T12:29:42.228Z</time></trkpt><trkpt lat="45.361105" lon="8.83552"><ele>110.57142857142857</ele><time>2026-03-29T12:29:43.227Z</time></trkpt><trkpt lat="45.3610433" lon="8.8355667"><ele>110.42857142857142</ele><time>2026-03-29T12:29:44.227Z</time></trkpt><trkpt lat="45.3609767" lon="8.8356167"><ele>110.28571428571428</ele><time>2026-03-29T12:29:45.227Z</time></trkpt><trkpt lat="45.3609167" lon="8.83567"><ele>110.14285714285714</ele><time>2026-03-29T12:29:46.228Z</time></trkpt><trkpt lat="45.360855" lon="8.8357133"><ele>110.0</ele><time>2026-03-29T12:29:47.228Z</time></trkpt><trkpt lat="45.3607983" lon="8.8357667"><ele>110.0</ele><time>2026-03-29T12:29:48.228Z</time></trkpt><trkpt lat="45.3606933" lon="8.8358417"><ele>110.0</ele><time>2026-03-29T12:29:50.227Z</time></trkpt><trkpt lat="45.3606" lon="8.8359067"><ele>110.0</ele><time>2026-03-29T12:29:52.227Z</time></trkpt><trkpt lat="45.36051" lon="8.8359617"><ele>110.0</ele><time>2026-03-29T12:29:54.227Z</time></trkpt><trkpt lat="45.3604183" lon="8.8359983"><ele>110.0</ele><time>2026-03-29T12:29:56.228Z</time></trkpt><trkpt lat="45.3603233" lon="8.8359467"><ele>110.0</ele><time>2026-03-29T12:29:58.227Z</time></trkpt><trkpt lat="45.3602333" lon="8.835885"><ele>110.0</ele><time>2026-03-29T12:30:00.227Z</time></trkpt><trkpt lat="45.3601333" lon="8.8358683"><ele>110.0</ele><time>2026-03-29T12:30:02.227Z</time></trkpt><trkpt lat="45.3600383" lon="8.835895"><ele>110.0</ele><time>2026-03-29T12:30:04.227Z</time></trkpt><trkpt lat="45.3599417" lon="8.83594"><ele>110.0</ele><time>2026-03-29T12:30:06.227Z</time></trkpt><trkpt lat="45.3598517" lon="8.8359833"><ele>109.8</ele><time>2026-03-29T12:30:08.227Z</time></trkpt><trkpt lat="45.3597467" lon="8.836045"><ele>109.6</ele><time>2026-03-29T12:30:10.227Z</time></trkpt><trkpt lat="45.35969" lon="8.8360867"><ele>109.4</ele><time>2026-03-29T12:30:11.227Z</time></trkpt><trkpt lat="45.3595683" lon="8.83616"><ele>109.2</ele><time>2026-03-29T12:30:13.228Z</time></trkpt><trkpt lat="45.3594483" lon="8.83623"><ele>109.0</ele><time>2026-03-29T12:30:15.227Z</time></trkpt><trkpt lat="45.3593867" lon="8.8362667"><ele>109.00000000000001</ele><time>2026-03-29T12:30:16.227Z</time></trkpt><trkpt lat="45.3593217" lon="8.8363033"><ele>109.0</ele><time>2026-03-29T12:30:17.227Z</time></trkpt><trkpt lat="45.3592533" lon="8.83634"><ele>109.0</ele><time>2026-03-29T12:30:18.227Z</time></trkpt><trkpt lat="45.3591817" lon="8.8363817"><ele>109.0</ele><time>2026-03-29T12:30:19.227Z</time></trkpt><trkpt lat="45.35911" lon="8.83642"><ele>109.00000000000001</ele><time>2026-03-29T12:30:20.227Z</time></trkpt><trkpt lat="45.3590383" lon="8.8364583"><ele>109.0</ele><time>2026-03-29T12:30:21.228Z</time></trkpt><trkpt lat="45.3589667" lon="8.8364967"><ele>109.00000000000001</ele><time>2026-03-29T12:30:22.227Z</time></trkpt><trkpt lat="45.3589" lon="8.8365317"><ele>109.0</ele><time>2026-03-29T12:30:23.227Z</time></trkpt><trkpt lat="45.3588267" lon="8.8365633"><ele>109.0</ele><time>2026-03-29T12:30:24.228Z</time></trkpt><trkpt lat="45.3587533" lon="8.836595"><ele>109.0</ele><time>2026-03-29T12:30:25.227Z</time></trkpt><trkpt lat="45.3586867" lon="8.8366333"><ele>109.00000000000001</ele><time>2026-03-29T12:30:26.228Z</time></trkpt><trkpt lat="45.3586267" lon="8.8366633"><ele>109.0</ele><time>2026-03-29T12:30:27.227Z</time></trkpt><trkpt lat="45.3585083" lon="8.836725"><ele>109.0</ele><time>2026-03-29T12:30:29.227Z</time></trkpt><trkpt lat="45.358395" lon="8.8367933"><ele>109.0</ele><time>2026-03-29T12:30:31.227Z</time></trkpt><trkpt lat="45.3582817" lon="8.8368533"><ele>109.0</ele><time>2026-03-29T12:30:33.227Z</time></trkpt><trkpt lat="45.3582183" lon="8.83689"><ele>109.0</ele><time>2026-03-29T12:30:34.228Z</time></trkpt><trkpt lat="45.3581533" lon="8.836925"><ele>109.0</ele><time>2026-03-29T12:30:35.227Z</time></trkpt><trkpt lat="45.35809" lon="8.836965"><ele>109.14285714285714</ele><time>2026-03-29T12:30:36.227Z</time></trkpt><trkpt lat="45.358015" lon="8.837005"><ele>109.28571428571429</ele><time>2026-03-29T12:30:37.227Z</time></trkpt><trkpt lat="45.357945" lon="8.8370433"><ele>109.42857142857142</ele><time>2026-03-29T12:30:38.227Z</time></trkpt><trkpt lat="45.3578733" lon="8.8370767"><ele>109.57142857142857</ele><time>2026-03-29T12:30:39.227Z</time></trkpt><trkpt lat="45.3578083" lon="8.8371133"><ele>109.71428571428571</ele><time>2026-03-29T12:30:40.227Z</time></trkpt><trkpt lat="45.3577383" lon="8.8371533"><ele>109.85714285714285</ele><time>2026-03-29T12:30:41.228Z</time></trkpt><trkpt lat="45.35767" lon="8.8371883"><ele>110.0</ele><time>2026-03-29T12:30:42.227Z</time></trkpt><trkpt lat="45.3576033" lon="8.837225"><ele>109.99999999999999</ele><time>2026-03-29T12:30:43.227Z</time></trkpt><trkpt lat="45.3575333" lon="8.8372617"><ele>110.0</ele><time>2026-03-29T12:30:44.227Z</time></trkpt><trkpt lat="45.3574667" lon="8.8372933"><ele>110.0</ele><time>2026-03-29T12:30:45.227Z</time></trkpt><trkpt lat="45.3574017" lon="8.8373367"><ele>110.0</ele><time>2026-03-29T12:30:46.227Z</time></trkpt><trkpt lat="45.3573317" lon="8.8373683"><ele>110.0</ele><time>2026-03-29T12:30:47.227Z</time></trkpt><trkpt lat="45.357265" lon="8.8374067"><ele>109.99999999999999</ele><time>2026-03-29T12:30:48.227Z</time></trkpt><trkpt lat="45.3572017" lon="8.8374367"><ele>110.0</ele><time>2026-03-29T12:30:49.228Z</time></trkpt><trkpt lat="45.357135" lon="8.837475"><ele>109.75</ele><time>2026-03-29T12:30:50.227Z</time></trkpt><trkpt lat="45.35701" lon="8.8375433"><ele>109.5</ele><time>2026-03-29T12:30:52.227Z</time></trkpt><trkpt lat="45.356895" lon="8.837615"><ele>109.25</ele><time>2026-03-29T12:30:54.227Z</time></trkpt><trkpt lat="45.35678" lon="8.8376633"><ele>109.0</ele><time>2026-03-29T12:30:56.227Z</time></trkpt><trkpt lat="45.3566767" lon="8.8377217"><ele>109.0</ele><time>2026-03-29T12:30:58.227Z</time></trkpt><trkpt lat="45.3565867" lon="8.837775"><ele>109.0</ele><time>2026-03-29T12:31:00.227Z</time></trkpt><trkpt lat="45.3565017" lon="8.8378433"><ele>109.0</ele><time>2026-03-29T12:31:02.227Z</time></trkpt><trkpt lat="45.356445" lon="8.83796"><ele>109.0</ele><time>2026-03-29T12:31:04.227Z</time></trkpt><trkpt lat="45.3564167" lon="8.8381167"><ele>109.0</ele><time>2026-03-29T12:31:06.227Z</time></trkpt><trkpt lat="45.35643" lon="8.8382117"><ele>109.00000000000001</ele><time>2026-03-29T12:31:07.227Z</time></trkpt><trkpt lat="45.35644" lon="8.8383017"><ele>109.0</ele><time>2026-03-29T12:31:08.228Z</time></trkpt><trkpt lat="45.3564817" lon="8.8383867"><ele>109.0</ele><time>2026-03-29T12:31:09.227Z</time></trkpt><trkpt lat="45.356515" lon="8.838465"><ele>109.0</ele><time>2026-03-29T12:31:10.227Z</time></trkpt><trkpt lat="45.3565467" lon="8.838555"><ele>109.00000000000001</ele><time>2026-03-29T12:31:11.227Z</time></trkpt><trkpt lat="45.3565733" lon="8.83864"><ele>109.0</ele><time>2026-03-29T12:31:12.228Z</time></trkpt><trkpt lat="45.3565983" lon="8.8388"><ele>108.5</ele><time>2026-03-29T12:31:14.227Z</time></trkpt><trkpt lat="45.356615" lon="8.8389617"><ele>108.0</ele><time>2026-03-29T12:31:16.227Z</time></trkpt><trkpt lat="45.3566183" lon="8.8391283"><ele>107.5</ele><time>2026-03-29T12:31:18.227Z</time></trkpt><trkpt lat="45.356585" lon="8.83927"><ele>107.0</ele><time>2026-03-29T12:31:20.228Z</time></trkpt><trkpt lat="45.3565167" lon="8.8394033"><ele>106.83333333333333</ele><time>2026-03-29T12:31:22.227Z</time></trkpt><trkpt lat="45.356425" lon="8.839495"><ele>106.66666666666666</ele><time>2026-03-29T12:31:24.227Z</time></trkpt><trkpt lat="45.356315" lon="8.8395583"><ele>106.5</ele><time>2026-03-29T12:31:26.228Z</time></trkpt><trkpt lat="45.356255" lon="8.83959"><ele>106.33333333333334</ele><time>2026-03-29T12:31:27.227Z</time></trkpt><trkpt lat="45.3561917" lon="8.8396233"><ele>106.16666666666667</ele><time>2026-03-29T12:31:28.227Z</time></trkpt><trkpt lat="45.3561283" lon="8.839655"><ele>106.0</ele><time>2026-03-29T12:31:29.227Z</time></trkpt><trkpt lat="45.3560667" lon="8.8396833"><ele>106.0</ele><time>2026-03-29T12:31:30.227Z</time></trkpt><trkpt lat="45.3559533" lon="8.83974"><ele>106.0</ele><time>2026-03-29T12:31:32.227Z</time></trkpt><trkpt lat="45.3558467" lon="8.839805"><ele>106.0</ele><time>2026-03-29T12:31:34.227Z</time></trkpt><trkpt lat="45.3557333" lon="8.8398833"><ele>106.0</ele><time>2026-03-29T12:31:36.227Z</time></trkpt><trkpt lat="45.3556217" lon="8.8399583"><ele>106.5</ele><time>2026-03-29T12:31:38.228Z</time></trkpt><trkpt lat="45.3555167" lon="8.8400183"><ele>107.0</ele><time>2026-03-29T12:31:40.228Z</time></trkpt><trkpt lat="45.3554067" lon="8.840095"><ele>107.5</ele><time>2026-03-29T12:31:42.227Z</time></trkpt><trkpt lat="45.355315" lon="8.8401833"><ele>108.0</ele><time>2026-03-29T12:31:44.227Z</time></trkpt><trkpt lat="45.3552117" lon="8.8402783"><ele>108.0</ele><time>2026-03-29T12:31:46.227Z</time></trkpt><trkpt lat="45.355125" lon="8.8403617"><ele>108.0</ele><time>2026-03-29T12:31:48.228Z</time></trkpt><trkpt lat="45.35507" lon="8.8404117"><ele>108.0</ele><time>2026-03-29T12:31:49.227Z</time></trkpt><trkpt lat="45.3550183" lon="8.8404633"><ele>108.0</ele><time>2026-03-29T12:31:50.227Z</time></trkpt><trkpt lat="45.354955" lon="8.84051"><ele>108.0</ele><time>2026-03-29T12:31:51.227Z</time></trkpt><trkpt lat="45.3548917" lon="8.8405567"><ele>108.0</ele><time>2026-03-29T12:31:52.227Z</time></trkpt><trkpt lat="45.35483" lon="8.8406"><ele>108.0</ele><time>2026-03-29T12:31:53.228Z</time></trkpt><trkpt lat="45.3547683" lon="8.8406383"><ele>108.2</ele><time>2026-03-29T12:31:54.227Z</time></trkpt><trkpt lat="45.3546667" lon="8.840715"><ele>108.4</ele><time>2026-03-29T12:31:56.227Z</time></trkpt><trkpt lat="45.35455" lon="8.8407667"><ele>108.60000000000001</ele><time>2026-03-29T12:31:58.227Z</time></trkpt><trkpt lat="45.35449" lon="8.8408083"><ele>108.80000000000001</ele><time>2026-03-29T12:31:59.227Z</time></trkpt><trkpt lat="45.3544283" lon="8.84084"><ele>109.0</ele><time>2026-03-29T12:32:00.228Z</time></trkpt><trkpt lat="45.354315" lon="8.84091"><ele>109.0</ele><time>2026-03-29T12:32:02.227Z</time></trkpt><trkpt lat="45.3541967" lon="8.8409733"><ele>109.0</ele><time>2026-03-29T12:32:04.227Z</time></trkpt><trkpt lat="45.3540767" lon="8.8410383"><ele>109.0</ele><time>2026-03-29T12:32:06.227Z</time></trkpt><trkpt lat="45.3540183" lon="8.841075"><ele>109.0</ele><time>2026-03-29T12:32:07.227Z</time></trkpt><trkpt lat="45.35396" lon="8.8411217"><ele>109.0</ele><time>2026-03-29T12:32:08.227Z</time></trkpt><trkpt lat="45.3538967" lon="8.8411467"><ele>108.85714285714286</ele><time>2026-03-29T12:32:09.228Z</time></trkpt><trkpt lat="45.3538417" lon="8.841195"><ele>108.71428571428572</ele><time>2026-03-29T12:32:10.228Z</time></trkpt><trkpt lat="45.3537783" lon="8.8412533"><ele>108.57142857142857</ele><time>2026-03-29T12:32:11.228Z</time></trkpt><trkpt lat="45.3537133" lon="8.841305"><ele>108.42857142857143</ele><time>2026-03-29T12:32:12.227Z</time></trkpt><trkpt lat="45.35365" lon="8.8413533"><ele>108.28571428571428</ele><time>2026-03-29T12:32:13.227Z</time></trkpt><trkpt lat="45.3535917" lon="8.8414083"><ele>108.14285714285714</ele><time>2026-03-29T12:32:14.227Z</time></trkpt><trkpt lat="45.35353" lon="8.8414533"><ele>108.0</ele><time>2026-03-29T12:32:15.227Z</time></trkpt><trkpt lat="45.353465" lon="8.8415"><ele>108.0</ele><time>2026-03-29T12:32:16.227Z</time></trkpt><trkpt lat="45.35341" lon="8.841545"><ele>108.0</ele><time>2026-03-29T12:32:17.227Z</time></trkpt><trkpt lat="45.3533483" lon="8.8415933"><ele>108.0</ele><time>2026-03-29T12:32:18.228Z</time></trkpt><trkpt lat="45.35329" lon="8.841635"><ele>108.0</ele><time>2026-03-29T12:32:19.227Z</time></trkpt><trkpt lat="45.35323" lon="8.8416917"><ele>108.0</ele><time>2026-03-29T12:32:20.227Z</time></trkpt><trkpt lat="45.35317" lon="8.8417433"><ele>108.0</ele><time>2026-03-29T12:32:21.227Z</time></trkpt><trkpt lat="45.3531083" lon="8.8417917"><ele>108.0</ele><time>2026-03-29T12:32:22.227Z</time></trkpt><trkpt lat="45.3530483" lon="8.841845"><ele>108.14285714285714</ele><time>2026-03-29T12:32:23.227Z</time></trkpt><trkpt lat="45.3529917" lon="8.841895"><ele>108.28571428571428</ele><time>2026-03-29T12:32:24.227Z</time></trkpt><trkpt lat="45.35293" lon="8.84195"><ele>108.42857142857143</ele><time>2026-03-29T12:32:25.227Z</time></trkpt><trkpt lat="45.3528667" lon="8.842"><ele>108.57142857142857</ele><time>2026-03-29T12:32:26.227Z</time></trkpt><trkpt lat="45.3528067" lon="8.8420467"><ele>108.71428571428572</ele><time>2026-03-29T12:32:27.227Z</time></trkpt><trkpt lat="45.352745" lon="8.8420917"><ele>108.85714285714286</ele><time>2026-03-29T12:32:28.228Z</time></trkpt><trkpt lat="45.3526867" lon="8.842145"><ele>109.0</ele><time>2026-03-29T12:32:29.227Z</time></trkpt><trkpt lat="45.3526317" lon="8.8421933"><ele>109.00000000000001</ele><time>2026-03-29T12:32:30.228Z</time></trkpt><trkpt lat="45.3525783" lon="8.8422417"><ele>109.0</ele><time>2026-03-29T12:32:31.227Z</time></trkpt><trkpt lat="45.3525233" lon="8.8422883"><ele>109.0</ele><time>2026-03-29T12:32:32.227Z</time></trkpt><trkpt lat="45.3524117" lon="8.8423767"><ele>109.0</ele><time>2026-03-29T12:32:34.227Z</time></trkpt><trkpt lat="45.3523583" lon="8.8424283"><ele>109.00000000000001</ele><time>2026-03-29T12:32:35.228Z</time></trkpt><trkpt lat="45.3522983" lon="8.842475"><ele>109.0</ele><time>2026-03-29T12:32:36.227Z</time></trkpt><trkpt lat="45.3521883" lon="8.84257"><ele>109.0</ele><time>2026-03-29T12:32:38.227Z</time></trkpt><trkpt lat="45.3521183" lon="8.8426267"><ele>109.0</ele><time>2026-03-29T12:32:39.227Z</time></trkpt><trkpt lat="45.3520433" lon="8.84268"><ele>109.0</ele><time>2026-03-29T12:32:40.227Z</time></trkpt><trkpt lat="45.35196" lon="8.8427383"><ele>109.0</ele><time>2026-03-29T12:32:41.228Z</time></trkpt><trkpt lat="45.35187" lon="8.8428033"><ele>109.0</ele><time>2026-03-29T12:32:42.227Z</time></trkpt><trkpt lat="45.3517817" lon="8.842875"><ele>108.75</ele><time>2026-03-29T12:32:43.227Z</time></trkpt><trkpt lat="45.351685" lon="8.842955"><ele>108.5</ele><time>2026-03-29T12:32:44.228Z</time></trkpt><trkpt lat="45.35158" lon="8.8430467"><ele>108.25</ele><time>2026-03-29T12:32:45.227Z</time></trkpt><trkpt lat="45.3514683" lon="8.84313"><ele>108.0</ele><time>2026-03-29T12:32:46.228Z</time></trkpt><trkpt lat="45.3513667" lon="8.8432167"><ele>108.0</ele><time>2026-03-29T12:32:47.227Z</time></trkpt><trkpt lat="45.3512667" lon="8.843305"><ele>108.00000000000001</ele><time>2026-03-29T12:32:48.228Z</time></trkpt><trkpt lat="45.3511783" lon="8.8433833"><ele>108.00000000000001</ele><time>2026-03-29T12:32:49.227Z</time></trkpt><trkpt lat="45.351085" lon="8.8434567"><ele>108.0</ele><time>2026-03-29T12:32:50.227Z</time></trkpt><trkpt lat="45.3509933" lon="8.843535"><ele>108.0</ele><time>2026-03-29T12:32:51.227Z</time></trkpt><trkpt lat="45.3509083" lon="8.8436083"><ele>108.0</ele><time>2026-03-29T12:32:52.227Z</time></trkpt><trkpt lat="45.350825" lon="8.84368"><ele>108.00000000000001</ele><time>2026-03-29T12:32:53.227Z</time></trkpt><trkpt lat="45.350745" lon="8.8437567"><ele>108.00000000000001</ele><time>2026-03-29T12:32:54.228Z</time></trkpt><trkpt lat="45.3506583" lon="8.8438333"><ele>108.0</ele><time>2026-03-29T12:32:55.227Z</time></trkpt><trkpt lat="45.3505733" lon="8.8438917"><ele>108.0</ele><time>2026-03-29T12:32:56.227Z</time></trkpt><trkpt lat="45.3504967" lon="8.8439633"><ele>108.2</ele><time>2026-03-29T12:32:57.227Z</time></trkpt><trkpt lat="45.350405" lon="8.84404"><ele>108.4</ele><time>2026-03-29T12:32:58.228Z</time></trkpt><trkpt lat="45.3503233" lon="8.8441083"><ele>108.60000000000001</ele><time>2026-03-29T12:32:59.227Z</time></trkpt><trkpt lat="45.3502383" lon="8.8441767"><ele>108.80000000000001</ele><time>2026-03-29T12:33:00.228Z</time></trkpt><trkpt lat="45.3501483" lon="8.84424"><ele>109.0</ele><time>2026-03-29T12:33:01.227Z</time></trkpt><trkpt lat="45.3500483" lon="8.8443133"><ele>109.0</ele><time>2026-03-29T12:33:02.227Z</time></trkpt><trkpt lat="45.3499517" lon="8.8443983"><ele>109.0</ele><time>2026-03-29T12:33:03.227Z</time></trkpt><trkpt lat="45.3498617" lon="8.84447"><ele>109.0</ele><time>2026-03-29T12:33:04.227Z</time></trkpt><trkpt lat="45.349775" lon="8.844545"><ele>109.0</ele><time>2026-03-29T12:33:05.227Z</time></trkpt><trkpt lat="45.349695" lon="8.844615"><ele>109.0</ele><time>2026-03-29T12:33:06.228Z</time></trkpt><trkpt lat="45.34963" lon="8.844675"><ele>109.0</ele><time>2026-03-29T12:33:07.227Z</time></trkpt><trkpt lat="45.3495533" lon="8.8447683"><ele>109.0</ele><time>2026-03-29T12:33:09.227Z</time></trkpt><trkpt lat="45.349575" lon="8.8449083"><ele>109.0</ele><time>2026-03-29T12:33:12.228Z</time></trkpt><trkpt lat="45.3496433" lon="8.8450367"><ele>109.0</ele><time>2026-03-29T12:33:14.227Z</time></trkpt><trkpt lat="45.349705" lon="8.845215"><ele>108.80000000000001</ele><time>2026-03-29T12:33:16.227Z</time></trkpt><trkpt lat="45.3497433" lon="8.8453317"><ele>108.60000000000001</ele><time>2026-03-29T12:33:17.227Z</time></trkpt><trkpt lat="45.3497733" lon="8.8454517"><ele>108.4</ele><time>2026-03-29T12:33:18.227Z</time></trkpt><trkpt lat="45.3498183" lon="8.8455933"><ele>108.2</ele><time>2026-03-29T12:33:19.227Z</time></trkpt><trkpt lat="45.349865" lon="8.8457417"><ele>108.0</ele><time>2026-03-29T12:33:20.227Z</time></trkpt><trkpt lat="45.3498917" lon="8.8458867"><ele>108.0</ele><time>2026-03-29T12:33:21.227Z</time></trkpt><trkpt lat="45.3499333" lon="8.8460467"><ele>108.00000000000001</ele><time>2026-03-29T12:33:22.227Z</time></trkpt><trkpt lat="45.349975" lon="8.846195"><ele>108.00000000000001</ele><time>2026-03-29T12:33:23.227Z</time></trkpt><trkpt lat="45.3500117" lon="8.846325"><ele>108.0</ele><time>2026-03-29T12:33:24.228Z</time></trkpt><trkpt lat="45.350035" lon="8.84645"><ele>108.0</ele><time>2026-03-29T12:33:25.228Z</time></trkpt><trkpt lat="45.3500633" lon="8.8465683"><ele>108.0</ele><time>2026-03-29T12:33:26.227Z</time></trkpt><trkpt lat="45.3500983" lon="8.8466717"><ele>108.0</ele><time>2026-03-29T12:33:27.227Z</time></trkpt><trkpt lat="45.3501383" lon="8.8467833"><ele>108.0</ele><time>2026-03-29T12:33:28.227Z</time></trkpt><trkpt lat="45.3501667" lon="8.8468733"><ele>108.0</ele><time>2026-03-29T12:33:29.227Z</time></trkpt><trkpt lat="45.35021" lon="8.8469883"><ele>108.0</ele><time>2026-03-29T12:33:30.227Z</time></trkpt><trkpt lat="45.350245" lon="8.847095"><ele>108.0</ele><time>2026-03-29T12:33:31.227Z</time></trkpt><trkpt lat="45.3502817" lon="8.8471883"><ele>108.0</ele><time>2026-03-29T12:33:32.227Z</time></trkpt><trkpt lat="45.3503117" lon="8.8472717"><ele>108.0</ele><time>2026-03-29T12:33:33.227Z</time></trkpt><trkpt lat="45.3503183" lon="8.8474483"><ele>108.0</ele><time>2026-03-29T12:33:35.227Z</time></trkpt><trkpt lat="45.3503067" lon="8.8475517"><ele>108.0</ele><time>2026-03-29T12:33:36.227Z</time></trkpt><trkpt lat="45.3502783" lon="8.847665"><ele>108.0</ele><time>2026-03-29T12:33:37.227Z</time></trkpt><trkpt lat="45.3502467" lon="8.8477783"><ele>108.0</ele><time>2026-03-29T12:33:38.227Z</time></trkpt><trkpt lat="45.3502083" lon="8.84789"><ele>108.2</ele><time>2026-03-29T12:33:39.227Z</time></trkpt><trkpt lat="45.3501583" lon="8.8480017"><ele>108.4</ele><time>2026-03-29T12:33:40.228Z</time></trkpt><trkpt lat="45.3501183" lon="8.8481017"><ele>108.60000000000001</ele><time>2026-03-29T12:33:41.227Z</time></trkpt><trkpt lat="45.3500483" lon="8.8482267"><ele>108.80000000000001</ele><time>2026-03-29T12:33:43.227Z</time></trkpt><trkpt lat="45.3499367" lon="8.8483"><ele>109.0</ele><time>2026-03-29T12:33:45.227Z</time></trkpt><trkpt lat="45.3498583" lon="8.8483267"><ele>109.0</ele><time>2026-03-29T12:33:46.227Z</time></trkpt><trkpt lat="45.3497733" lon="8.8483683"><ele>109.0</ele><time>2026-03-29T12:33:47.227Z</time></trkpt><trkpt lat="45.349685" lon="8.8484167"><ele>109.0</ele><time>2026-03-29T12:33:48.227Z</time></trkpt><trkpt lat="45.349595" lon="8.8484767"><ele>109.0</ele><time>2026-03-29T12:33:49.228Z</time></trkpt><trkpt lat="45.3495" lon="8.8485233"><ele>109.0</ele><time>2026-03-29T12:33:50.228Z</time></trkpt><trkpt lat="45.3494067" lon="8.848565"><ele>109.2</ele><time>2026-03-29T12:33:51.228Z</time></trkpt><trkpt lat="45.3493117" lon="8.8486083"><ele>109.4</ele><time>2026-03-29T12:33:52.228Z</time></trkpt><trkpt lat="45.349225" lon="8.848655"><ele>109.6</ele><time>2026-03-29T12:33:53.228Z</time></trkpt><trkpt lat="45.3491333" lon="8.8487067"><ele>109.8</ele><time>2026-03-29T12:33:54.227Z</time></trkpt><trkpt lat="45.3490417" lon="8.84875"><ele>110.0</ele><time>2026-03-29T12:33:55.228Z</time></trkpt><trkpt lat="45.3489433" lon="8.8488083"><ele>110.2</ele><time>2026-03-29T12:33:56.227Z</time></trkpt><trkpt lat="45.3488433" lon="8.8488567"><ele>110.4</ele><time>2026-03-29T12:33:57.227Z</time></trkpt><trkpt lat="45.3487333" lon="8.8489083"><ele>110.6</ele><time>2026-03-29T12:33:58.227Z</time></trkpt><trkpt lat="45.34863" lon="8.8489567"><ele>110.8</ele><time>2026-03-29T12:33:59.227Z</time></trkpt><trkpt lat="45.3485283" lon="8.8490183"><ele>111.0</ele><time>2026-03-29T12:34:00.227Z</time></trkpt><trkpt lat="45.3484317" lon="8.8490717"><ele>111.0</ele><time>2026-03-29T12:34:01.227Z</time></trkpt><trkpt lat="45.3483367" lon="8.8491233"><ele>111.0</ele><time>2026-03-29T12:34:02.227Z</time></trkpt><trkpt lat="45.3482467" lon="8.8491733"><ele>111.0</ele><time>2026-03-29T12:34:03.227Z</time></trkpt><trkpt lat="45.3481583" lon="8.849225"><ele>111.0</ele><time>2026-03-29T12:34:04.227Z</time></trkpt><trkpt lat="45.348065" lon="8.84927"><ele>111.0</ele><time>2026-03-29T12:34:05.227Z</time></trkpt><trkpt lat="45.347965" lon="8.8493217"><ele>110.19999999999999</ele><time>2026-03-29T12:34:06.227Z</time></trkpt><trkpt lat="45.3478733" lon="8.8493733"><ele>109.39999999999999</ele><time>2026-03-29T12:34:07.227Z</time></trkpt><trkpt lat="45.347775" lon="8.8494317"><ele>108.6</ele><time>2026-03-29T12:34:08.228Z</time></trkpt><trkpt lat="45.3476783" lon="8.8494767"><ele>107.8</ele><time>2026-03-29T12:34:09.227Z</time></trkpt><trkpt lat="45.3475667" lon="8.8495383"><ele>107.0</ele><time>2026-03-29T12:34:10.227Z</time></trkpt><trkpt lat="45.34745" lon="8.8496017"><ele>107.0</ele><time>2026-03-29T12:34:11.228Z</time></trkpt><trkpt lat="45.3473333" lon="8.84967"><ele>107.0</ele><time>2026-03-29T12:34:12.227Z</time></trkpt><trkpt lat="45.3472183" lon="8.8497417"><ele>107.0</ele><time>2026-03-29T12:34:13.227Z</time></trkpt><trkpt lat="45.3471067" lon="8.84981"><ele>107.0</ele><time>2026-03-29T12:34:14.227Z</time></trkpt><trkpt lat="45.3469967" lon="8.849875"><ele>107.25</ele><time>2026-03-29T12:34:15.227Z</time></trkpt><trkpt lat="45.3468917" lon="8.84993"><ele>107.5</ele><time>2026-03-29T12:34:16.228Z</time></trkpt><trkpt lat="45.3467783" lon="8.8500033"><ele>107.75</ele><time>2026-03-29T12:34:17.227Z</time></trkpt><trkpt lat="45.346665" lon="8.8500717"><ele>108.0</ele><time>2026-03-29T12:34:18.227Z</time></trkpt><trkpt lat="45.3465583" lon="8.85015"><ele>108.0</ele><time>2026-03-29T12:34:19.227Z</time></trkpt><trkpt lat="45.3464517" lon="8.8502217"><ele>108.00000000000001</ele><time>2026-03-29T12:34:20.227Z</time></trkpt><trkpt lat="45.3463617" lon="8.8502767"><ele>108.00000000000001</ele><time>2026-03-29T12:34:21.227Z</time></trkpt><trkpt lat="45.3462683" lon="8.850335"><ele>108.0</ele><time>2026-03-29T12:34:22.228Z</time></trkpt><trkpt lat="45.3461733" lon="8.8504"><ele>108.0</ele><time>2026-03-29T12:34:23.228Z</time></trkpt><trkpt lat="45.3460733" lon="8.8504717"><ele>108.2</ele><time>2026-03-29T12:34:24.227Z</time></trkpt><trkpt lat="45.3459783" lon="8.8505283"><ele>108.4</ele><time>2026-03-29T12:34:25.227Z</time></trkpt><trkpt lat="45.3458833" lon="8.8505867"><ele>108.60000000000001</ele><time>2026-03-29T12:34:26.227Z</time></trkpt><trkpt lat="45.3457933" lon="8.850645"><ele>108.80000000000001</ele><time>2026-03-29T12:34:27.227Z</time></trkpt><trkpt lat="45.3456967" lon="8.85071"><ele>109.0</ele><time>2026-03-29T12:34:28.227Z</time></trkpt><trkpt lat="45.345605" lon="8.8507767"><ele>108.80000000000001</ele><time>2026-03-29T12:34:29.227Z</time></trkpt><trkpt lat="45.3455133" lon="8.8508383"><ele>108.60000000000001</ele><time>2026-03-29T12:34:30.227Z</time></trkpt><trkpt lat="45.345425" lon="8.8508917"><ele>108.4</ele><time>2026-03-29T12:34:31.228Z</time></trkpt><trkpt lat="45.3453417" lon="8.850945"><ele>108.2</ele><time>2026-03-29T12:34:32.228Z</time></trkpt><trkpt lat="45.345265" lon="8.8509933"><ele>108.0</ele><time>2026-03-29T12:34:33.227Z</time></trkpt><trkpt lat="45.345185" lon="8.8510333"><ele>108.0</ele><time>2026-03-29T12:34:34.228Z</time></trkpt><trkpt lat="45.345105" lon="8.8510767"><ele>108.0</ele><time>2026-03-29T12:34:35.227Z</time></trkpt><trkpt lat="45.345025" lon="8.8511267"><ele>108.0</ele><time>2026-03-29T12:34:36.228Z</time></trkpt><trkpt lat="45.3449467" lon="8.8511733"><ele>108.0</ele><time>2026-03-29T12:34:37.227Z</time></trkpt><trkpt lat="45.344865" lon="8.85122"><ele>108.0</ele><time>2026-03-29T12:34:38.227Z</time></trkpt><trkpt lat="45.3447933" lon="8.85126"><ele>108.0</ele><time>2026-03-29T12:34:39.228Z</time></trkpt><trkpt lat="45.34472" lon="8.8513"><ele>107.83333333333333</ele><time>2026-03-29T12:34:40.228Z</time></trkpt><trkpt lat="45.3446467" lon="8.8513383"><ele>107.66666666666666</ele><time>2026-03-29T12:34:41.227Z</time></trkpt><trkpt lat="45.3445767" lon="8.85137"><ele>107.5</ele><time>2026-03-29T12:34:42.227Z</time></trkpt><trkpt lat="45.3444967" lon="8.8514133"><ele>107.33333333333333</ele><time>2026-03-29T12:34:43.227Z</time></trkpt><trkpt lat="45.34441" lon="8.85146"><ele>107.16666666666666</ele><time>2026-03-29T12:34:44.227Z</time></trkpt><trkpt lat="45.344325" lon="8.8515167"><ele>107.0</ele><time>2026-03-29T12:34:45.227Z</time></trkpt><trkpt lat="45.3442417" lon="8.8515717"><ele>107.0</ele><time>2026-03-29T12:34:46.227Z</time></trkpt><trkpt lat="45.3441583" lon="8.85162"><ele>106.99999999999999</ele><time>2026-03-29T12:34:47.227Z</time></trkpt><trkpt lat="45.3440817" lon="8.851675"><ele>106.99999999999999</ele><time>2026-03-29T12:34:48.227Z</time></trkpt><trkpt lat="45.3440033" lon="8.8517483"><ele>107.0</ele><time>2026-03-29T12:34:49.227Z</time></trkpt><trkpt lat="45.3439133" lon="8.8518333"><ele>107.0</ele><time>2026-03-29T12:34:50.227Z</time></trkpt><trkpt lat="45.34382" lon="8.851935"><ele>107.25</ele><time>2026-03-29T12:34:51.228Z</time></trkpt><trkpt lat="45.34372" lon="8.85205"><ele>107.5</ele><time>2026-03-29T12:34:52.227Z</time></trkpt><trkpt lat="45.3436283" lon="8.8521517"><ele>107.75</ele><time>2026-03-29T12:34:53.227Z</time></trkpt><trkpt lat="45.3435317" lon="8.8522583"><ele>108.0</ele><time>2026-03-29T12:34:54.228Z</time></trkpt><trkpt lat="45.34344" lon="8.85236"><ele>108.0</ele><time>2026-03-29T12:34:55.227Z</time></trkpt><trkpt lat="45.34336" lon="8.8524533"><ele>108.00000000000001</ele><time>2026-03-29T12:34:56.227Z</time></trkpt><trkpt lat="45.3432683" lon="8.8525533"><ele>108.00000000000001</ele><time>2026-03-29T12:34:57.227Z</time></trkpt><trkpt lat="45.3431767" lon="8.8526333"><ele>108.0</ele><time>2026-03-29T12:34:58.227Z</time></trkpt><trkpt lat="45.3430933" lon="8.8526883"><ele>108.0</ele><time>2026-03-29T12:34:59.228Z</time></trkpt><trkpt lat="45.3430017" lon="8.8527433"><ele>108.0</ele><time>2026-03-29T12:35:00.227Z</time></trkpt><trkpt lat="45.3429117" lon="8.8527933"><ele>108.0</ele><time>2026-03-29T12:35:01.227Z</time></trkpt><trkpt lat="45.3428283" lon="8.8528217"><ele>108.0</ele><time>2026-03-29T12:35:02.227Z</time></trkpt><trkpt lat="45.34275" lon="8.8528533"><ele>108.0</ele><time>2026-03-29T12:35:03.227Z</time></trkpt><trkpt lat="45.3426667" lon="8.8528833"><ele>108.0</ele><time>2026-03-29T12:35:04.227Z</time></trkpt><trkpt lat="45.3425733" lon="8.8529233"><ele>108.0</ele><time>2026-03-29T12:35:05.227Z</time></trkpt><trkpt lat="45.3424867" lon="8.8529633"><ele>108.0</ele><time>2026-03-29T12:35:06.228Z</time></trkpt><trkpt lat="45.3423967" lon="8.8530017"><ele>108.00000000000001</ele><time>2026-03-29T12:35:07.227Z</time></trkpt><trkpt lat="45.3423" lon="8.8530383"><ele>108.00000000000001</ele><time>2026-03-29T12:35:08.227Z</time></trkpt><trkpt lat="45.342205" lon="8.8530867"><ele>108.0</ele><time>2026-03-29T12:35:09.227Z</time></trkpt><trkpt lat="45.342105" lon="8.85314"><ele>108.0</ele><time>2026-03-29T12:35:10.227Z</time></trkpt><trkpt lat="45.3420017" lon="8.85319"><ele>108.5</ele><time>2026-03-29T12:35:11.228Z</time></trkpt><trkpt lat="45.3418883" lon="8.8532417"><ele>109.0</ele><time>2026-03-29T12:35:12.228Z</time></trkpt><trkpt lat="45.3417767" lon="8.8533"><ele>109.5</ele><time>2026-03-29T12:35:13.228Z</time></trkpt><trkpt lat="45.34166" lon="8.8533567"><ele>110.0</ele><time>2026-03-29T12:35:14.227Z</time></trkpt><trkpt lat="45.34154" lon="8.8534217"><ele>110.25</ele><time>2026-03-29T12:35:15.228Z</time></trkpt><trkpt lat="45.34143" lon="8.8534833"><ele>110.5</ele><time>2026-03-29T12:35:16.227Z</time></trkpt><trkpt lat="45.3413167" lon="8.85353"><ele>110.75</ele><time>2026-03-29T12:35:17.228Z</time></trkpt><trkpt lat="45.3412083" lon="8.8535917"><ele>111.0</ele><time>2026-03-29T12:35:18.227Z</time></trkpt><trkpt lat="45.341105" lon="8.8536483"><ele>110.6</ele><time>2026-03-29T12:35:19.228Z</time></trkpt><trkpt lat="45.341015" lon="8.8537017"><ele>110.19999999999999</ele><time>2026-03-29T12:35:20.227Z</time></trkpt><trkpt lat="45.34092" lon="8.8537483"><ele>109.80000000000001</ele><time>2026-03-29T12:35:21.227Z</time></trkpt><trkpt lat="45.3408317" lon="8.8538017"><ele>109.4</ele><time>2026-03-29T12:35:22.227Z</time></trkpt><trkpt lat="45.34074" lon="8.85385"><ele>109.0</ele><time>2026-03-29T12:35:23.228Z</time></trkpt><trkpt lat="45.3406517" lon="8.8539017"><ele>109.00000000000001</ele><time>2026-03-29T12:35:24.228Z</time></trkpt><trkpt lat="45.3405717" lon="8.8539383"><ele>109.0</ele><time>2026-03-29T12:35:25.227Z</time></trkpt><trkpt lat="45.3404883" lon="8.853975"><ele>109.0</ele><time>2026-03-29T12:35:26.227Z</time></trkpt><trkpt lat="45.3404117" lon="8.85401"><ele>109.0</ele><time>2026-03-29T12:35:27.227Z</time></trkpt><trkpt lat="45.3403317" lon="8.8540417"><ele>109.00000000000001</ele><time>2026-03-29T12:35:28.227Z</time></trkpt><trkpt lat="45.3402567" lon="8.8540667"><ele>109.0</ele><time>2026-03-29T12:35:29.227Z</time></trkpt><trkpt lat="45.3401733" lon="8.8540867"><ele>109.0</ele><time>2026-03-29T12:35:30.228Z</time></trkpt><trkpt lat="45.340085" lon="8.854095"><ele>109.0</ele><time>2026-03-29T12:35:31.228Z</time></trkpt><trkpt lat="45.339975" lon="8.8540867"><ele>109.0</ele><time>2026-03-29T12:35:32.228Z</time></trkpt><trkpt lat="45.33988" lon="8.854065"><ele>109.0</ele><time>2026-03-29T12:35:33.228Z</time></trkpt><trkpt lat="45.3397817" lon="8.85404"><ele>109.0</ele><time>2026-03-29T12:35:34.227Z</time></trkpt><trkpt lat="45.339675" lon="8.854015"><ele>109.0</ele><time>2026-03-29T12:35:35.227Z</time></trkpt><trkpt lat="45.3395667" lon="8.8539967"><ele>109.0</ele><time>2026-03-29T12:35:36.227Z</time></trkpt><trkpt lat="45.3394567" lon="8.8539833"><ele>109.0</ele><time>2026-03-29T12:35:37.227Z</time></trkpt><trkpt lat="45.3393533" lon="8.85396"><ele>109.0</ele><time>2026-03-29T12:35:38.228Z</time></trkpt><trkpt lat="45.3392533" lon="8.8539533"><ele>109.0</ele><time>2026-03-29T12:35:39.227Z</time></trkpt><trkpt lat="45.33916" lon="8.8539417"><ele>109.0</ele><time>2026-03-29T12:35:40.228Z</time></trkpt><trkpt lat="45.33907" lon="8.8539383"><ele>109.0</ele><time>2026-03-29T12:35:41.227Z</time></trkpt><trkpt lat="45.3389767" lon="8.85392"><ele>109.0</ele><time>2026-03-29T12:35:42.227Z</time></trkpt><trkpt lat="45.338885" lon="8.853905"><ele>109.0</ele><time>2026-03-29T12:35:43.227Z</time></trkpt><trkpt lat="45.33879" lon="8.85389"><ele>109.0</ele><time>2026-03-29T12:35:44.228Z</time></trkpt><trkpt lat="45.33869" lon="8.8538767"><ele>109.16666666666667</ele><time>2026-03-29T12:35:45.228Z</time></trkpt><trkpt lat="45.3385867" lon="8.853865"><ele>109.33333333333334</ele><time>2026-03-29T12:35:46.229Z</time></trkpt><trkpt lat="45.338495" lon="8.8538467"><ele>109.5</ele><time>2026-03-29T12:35:47.228Z</time></trkpt><trkpt lat="45.33841" lon="8.8538333"><ele>109.66666666666666</ele><time>2026-03-29T12:35:48.229Z</time></trkpt><trkpt lat="45.3383267" lon="8.8538317"><ele>109.83333333333333</ele><time>2026-03-29T12:35:49.228Z</time></trkpt><trkpt lat="45.3382483" lon="8.853825"><ele>110.0</ele><time>2026-03-29T12:35:50.228Z</time></trkpt><trkpt lat="45.3381767" lon="8.85382"><ele>109.99999999999999</ele><time>2026-03-29T12:35:51.229Z</time></trkpt><trkpt lat="45.3381067" lon="8.8538233"><ele>110.0</ele><time>2026-03-29T12:35:52.229Z</time></trkpt><trkpt lat="45.33804" lon="8.8538333"><ele>110.0</ele><time>2026-03-29T12:35:53.228Z</time></trkpt><trkpt lat="45.3379633" lon="8.85385"><ele>110.0</ele><time>2026-03-29T12:35:54.228Z</time></trkpt><trkpt lat="45.3378983" lon="8.85386"><ele>110.0</ele><time>2026-03-29T12:35:55.228Z</time></trkpt><trkpt lat="45.337835" lon="8.8538783"><ele>109.99999999999999</ele><time>2026-03-29T12:35:56.228Z</time></trkpt><trkpt lat="45.337765" lon="8.8538817"><ele>110.0</ele><time>2026-03-29T12:35:57.228Z</time></trkpt><trkpt lat="45.3376867" lon="8.8539083"><ele>109.4</ele><time>2026-03-29T12:35:58.229Z</time></trkpt><trkpt lat="45.337605" lon="8.8539433"><ele>108.8</ele><time>2026-03-29T12:35:59.228Z</time></trkpt><trkpt lat="45.3375067" lon="8.8539917"><ele>108.19999999999999</ele><time>2026-03-29T12:36:00.228Z</time></trkpt><trkpt lat="45.33741" lon="8.8540383"><ele>107.6</ele><time>2026-03-29T12:36:01.228Z</time></trkpt><trkpt lat="45.337295" lon="8.854095"><ele>107.0</ele><time>2026-03-29T12:36:02.229Z</time></trkpt><trkpt lat="45.337185" lon="8.85415"><ele>107.0</ele><time>2026-03-29T12:36:03.228Z</time></trkpt><trkpt lat="45.337085" lon="8.8542067"><ele>106.99999999999999</ele><time>2026-03-29T12:36:04.228Z</time></trkpt><trkpt lat="45.3369833" lon="8.8542683"><ele>106.99999999999999</ele><time>2026-03-29T12:36:05.228Z</time></trkpt><trkpt lat="45.3368817" lon="8.8543317"><ele>107.0</ele><time>2026-03-29T12:36:06.228Z</time></trkpt><trkpt lat="45.3367883" lon="8.854385"><ele>107.0</ele><time>2026-03-29T12:36:07.228Z</time></trkpt><trkpt lat="45.336695" lon="8.8544367"><ele>106.83333333333333</ele><time>2026-03-29T12:36:08.228Z</time></trkpt><trkpt lat="45.3366017" lon="8.8544883"><ele>106.66666666666666</ele><time>2026-03-29T12:36:09.229Z</time></trkpt><trkpt lat="45.3365117" lon="8.8545283"><ele>106.5</ele><time>2026-03-29T12:36:10.228Z</time></trkpt><trkpt lat="45.33643" lon="8.8545733"><ele>106.33333333333334</ele><time>2026-03-29T12:36:11.228Z</time></trkpt><trkpt lat="45.3363467" lon="8.8546117"><ele>106.16666666666667</ele><time>2026-03-29T12:36:12.228Z</time></trkpt><trkpt lat="45.3362733" lon="8.85464"><ele>106.0</ele><time>2026-03-29T12:36:13.228Z</time></trkpt><trkpt lat="45.3362" lon="8.8546767"><ele>106.33333333333334</ele><time>2026-03-29T12:36:14.228Z</time></trkpt><trkpt lat="45.3361367" lon="8.85471"><ele>106.66666666666667</ele><time>2026-03-29T12:36:15.228Z</time></trkpt><trkpt lat="45.3360717" lon="8.854745"><ele>107.0</ele><time>2026-03-29T12:36:16.228Z</time></trkpt><trkpt lat="45.33601" lon="8.854765"><ele>107.33333333333334</ele><time>2026-03-29T12:36:17.228Z</time></trkpt><trkpt lat="45.3359467" lon="8.8548017"><ele>107.66666666666667</ele><time>2026-03-29T12:36:18.228Z</time></trkpt><trkpt lat="45.3358383" lon="8.8548683"><ele>108.0</ele><time>2026-03-29T12:36:20.228Z</time></trkpt><trkpt lat="45.33575" lon="8.85491"><ele>108.0</ele><time>2026-03-29T12:36:22.228Z</time></trkpt><trkpt lat="45.3356633" lon="8.854925"><ele>108.0</ele><time>2026-03-29T12:36:24.229Z</time></trkpt><trkpt lat="45.3355533" lon="8.8548883"><ele>108.0</ele><time>2026-03-29T12:36:26.228Z</time></trkpt><trkpt lat="45.3354967" lon="8.85484"><ele>108.0</ele><time>2026-03-29T12:36:27.228Z</time></trkpt><trkpt lat="45.33544" lon="8.8547717"><ele>108.0</ele><time>2026-03-29T12:36:28.228Z</time></trkpt><trkpt lat="45.3353817" lon="8.8547017"><ele>108.0</ele><time>2026-03-29T12:36:29.229Z</time></trkpt><trkpt lat="45.3353233" lon="8.8546333"><ele>108.16666666666667</ele><time>2026-03-29T12:36:30.228Z</time></trkpt><trkpt lat="45.3352517" lon="8.85455"><ele>108.33333333333334</ele><time>2026-03-29T12:36:31.229Z</time></trkpt><trkpt lat="45.3351817" lon="8.8544783"><ele>108.5</ele><time>2026-03-29T12:36:32.228Z</time></trkpt><trkpt lat="45.33512" lon="8.8544083"><ele>108.66666666666667</ele><time>2026-03-29T12:36:33.229Z</time></trkpt><trkpt lat="45.3350567" lon="8.8543433"><ele>108.83333333333334</ele><time>2026-03-29T12:36:34.228Z</time></trkpt><trkpt lat="45.3349933" lon="8.8542917"><ele>109.0</ele><time>2026-03-29T12:36:35.228Z</time></trkpt><trkpt lat="45.33494" lon="8.8542433"><ele>108.83333333333334</ele><time>2026-03-29T12:36:36.228Z</time></trkpt><trkpt lat="45.3348467" lon="8.85414"><ele>108.66666666666667</ele><time>2026-03-29T12:36:38.229Z</time></trkpt><trkpt lat="45.3347617" lon="8.8540267"><ele>108.5</ele><time>2026-03-29T12:36:40.228Z</time></trkpt><trkpt lat="45.33471" lon="8.85397"><ele>108.33333333333334</ele><time>2026-03-29T12:36:41.228Z</time></trkpt><trkpt lat="45.334655" lon="8.8539067"><ele>108.16666666666667</ele><time>2026-03-29T12:36:42.229Z</time></trkpt><trkpt lat="45.3345983" lon="8.8538433"><ele>108.0</ele><time>2026-03-29T12:36:43.229Z</time></trkpt><trkpt lat="45.3345333" lon="8.8537817"><ele>108.0</ele><time>2026-03-29T12:36:44.229Z</time></trkpt><trkpt lat="45.3344567" lon="8.853735"><ele>108.0</ele><time>2026-03-29T12:36:45.228Z</time></trkpt><trkpt lat="45.3343383" lon="8.853665"><ele>108.0</ele><time>2026-03-29T12:36:47.228Z</time></trkpt><trkpt lat="45.3342767" lon="8.85363"><ele>108.0</ele><time>2026-03-29T12:36:48.228Z</time></trkpt><trkpt lat="45.3342117" lon="8.8535933"><ele>108.0</ele><time>2026-03-29T12:36:49.228Z</time></trkpt><trkpt lat="45.3341517" lon="8.85356"><ele>108.0</ele><time>2026-03-29T12:36:50.228Z</time></trkpt><trkpt lat="45.334045" lon="8.8534967"><ele>108.0</ele><time>2026-03-29T12:36:52.229Z</time></trkpt><trkpt lat="45.3339483" lon="8.8534383"><ele>108.0</ele><time>2026-03-29T12:36:54.228Z</time></trkpt><trkpt lat="45.333875" lon="8.8533783"><ele>108.0</ele><time>2026-03-29T12:36:56.228Z</time></trkpt><trkpt lat="45.33381" lon="8.853335"><ele>108.0</ele><time>2026-03-29T12:37:00.228Z</time></trkpt><trkpt lat="45.3337433" lon="8.85332"><ele>108.0</ele><time>2026-03-29T12:37:03.228Z</time></trkpt><trkpt lat="45.3336633" lon="8.8533317"><ele>108.0</ele><time>2026-03-29T12:37:06.229Z</time></trkpt><trkpt lat="45.3336017" lon="8.85336"><ele>108.0</ele><time>2026-03-29T12:37:09.228Z</time></trkpt><trkpt lat="45.3335" lon="8.8533683"><ele>108.00000000000001</ele><time>2026-03-29T12:37:16.228Z</time></trkpt><trkpt lat="45.3334117" lon="8.8533583"><ele>108.00000000000001</ele><time>2026-03-29T12:37:18.228Z</time></trkpt><trkpt lat="45.3333283" lon="8.8533967"><ele>108.0</ele><time>2026-03-29T12:37:20.229Z</time></trkpt><trkpt lat="45.333235" lon="8.8535033"><ele>108.0</ele><time>2026-03-29T12:37:22.229Z</time></trkpt><trkpt lat="45.3331783" lon="8.85356"><ele>108.0</ele><time>2026-03-29T12:37:23.228Z</time></trkpt><trkpt lat="45.333115" lon="8.8535917"><ele>108.0</ele><time>2026-03-29T12:37:24.228Z</time></trkpt><trkpt lat="45.3330517" lon="8.8536283"><ele>108.0</ele><time>2026-03-29T12:37:25.228Z</time></trkpt><trkpt lat="45.3329867" lon="8.85365"><ele>108.0</ele><time>2026-03-29T12:37:26.229Z</time></trkpt><trkpt lat="45.3329083" lon="8.8536833"><ele>108.0</ele><time>2026-03-29T12:37:27.228Z</time></trkpt><trkpt lat="45.332825" lon="8.853715"><ele>108.0</ele><time>2026-03-29T12:37:28.228Z</time></trkpt><trkpt lat="45.3327333" lon="8.8537467"><ele>108.2</ele><time>2026-03-29T12:37:29.228Z</time></trkpt><trkpt lat="45.332635" lon="8.8537733"><ele>108.4</ele><time>2026-03-29T12:37:30.228Z</time></trkpt><trkpt lat="45.3325367" lon="8.8538"><ele>108.60000000000001</ele><time>2026-03-29T12:37:31.228Z</time></trkpt><trkpt lat="45.3324383" lon="8.85383"><ele>108.80000000000001</ele><time>2026-03-29T12:37:32.228Z</time></trkpt><trkpt lat="45.3323433" lon="8.8538583"><ele>109.0</ele><time>2026-03-29T12:37:33.228Z</time></trkpt><trkpt lat="45.332255" lon="8.8538817"><ele>108.6</ele><time>2026-03-29T12:37:34.228Z</time></trkpt><trkpt lat="45.332165" lon="8.8539083"><ele>108.2</ele><time>2026-03-29T12:37:35.228Z</time></trkpt><trkpt lat="45.3320767" lon="8.8539317"><ele>107.79999999999998</ele><time>2026-03-29T12:37:36.228Z</time></trkpt><trkpt lat="45.33199" lon="8.8539567"><ele>107.39999999999999</ele><time>2026-03-29T12:37:37.228Z</time></trkpt><trkpt lat="45.3318983" lon="8.8539867"><ele>107.0</ele><time>2026-03-29T12:37:38.229Z</time></trkpt><trkpt lat="45.3318083" lon="8.854015"><ele>107.0</ele><time>2026-03-29T12:37:39.228Z</time></trkpt><trkpt lat="45.3317133" lon="8.8540433"><ele>106.99999999999999</ele><time>2026-03-29T12:37:40.228Z</time></trkpt><trkpt lat="45.331615" lon="8.8540683"><ele>106.99999999999999</ele><time>2026-03-29T12:37:41.228Z</time></trkpt><trkpt lat="45.33152" lon="8.854095"><ele>107.0</ele><time>2026-03-29T12:37:42.228Z</time></trkpt><trkpt lat="45.3314217" lon="8.85412"><ele>107.0</ele><time>2026-03-29T12:37:43.228Z</time></trkpt><trkpt lat="45.3313317" lon="8.8541417"><ele>106.99999999999999</ele><time>2026-03-29T12:37:44.228Z</time></trkpt><trkpt lat="45.3312417" lon="8.8541683"><ele>107.0</ele><time>2026-03-29T12:37:45.228Z</time></trkpt><trkpt lat="45.3311517" lon="8.8541933"><ele>107.0</ele><time>2026-03-29T12:37:46.228Z</time></trkpt><trkpt lat="45.3310667" lon="8.8542183"><ele>107.0</ele><time>2026-03-29T12:37:47.228Z</time></trkpt><trkpt lat="45.3309867" lon="8.8542433"><ele>106.99999999999999</ele><time>2026-03-29T12:37:48.228Z</time></trkpt><trkpt lat="45.3309067" lon="8.8542767"><ele>107.0</ele><time>2026-03-29T12:37:49.228Z</time></trkpt><trkpt lat="45.3308283" lon="8.8543133"><ele>107.00000000000001</ele><time>2026-03-29T12:37:50.228Z</time></trkpt><trkpt lat="45.3307533" lon="8.8543567"><ele>107.0</ele><time>2026-03-29T12:37:51.229Z</time></trkpt><trkpt lat="45.33068" lon="8.8543983"><ele>107.0</ele><time>2026-03-29T12:37:52.228Z</time></trkpt><trkpt lat="45.3306083" lon="8.8544383"><ele>107.0</ele><time>2026-03-29T12:37:53.228Z</time></trkpt><trkpt lat="45.33054" lon="8.8544717"><ele>107.0</ele><time>2026-03-29T12:37:54.229Z</time></trkpt><trkpt lat="45.3304767" lon="8.8545017"><ele>107.00000000000001</ele><time>2026-03-29T12:37:55.228Z</time></trkpt><trkpt lat="45.3304117" lon="8.8545267"><ele>107.0</ele><time>2026-03-29T12:37:56.228Z</time></trkpt><trkpt lat="45.330345" lon="8.85455"><ele>106.99999999999999</ele><time>2026-03-29T12:37:57.228Z</time></trkpt><trkpt lat="45.3302833" lon="8.8545717"><ele>107.0</ele><time>2026-03-29T12:37:58.228Z</time></trkpt><trkpt lat="45.330165" lon="8.854605"><ele>107.0</ele><time>2026-03-29T12:38:00.229Z</time></trkpt><trkpt lat="45.3300983" lon="8.854625"><ele>107.0</ele><time>2026-03-29T12:38:01.228Z</time></trkpt><trkpt lat="45.3300283" lon="8.854645"><ele>106.99999999999999</ele><time>2026-03-29T12:38:02.228Z</time></trkpt><trkpt lat="45.3299583" lon="8.8546517"><ele>107.0</ele><time>2026-03-29T12:38:03.228Z</time></trkpt><trkpt lat="45.3298833" lon="8.854655"><ele>106.99999999999999</ele><time>2026-03-29T12:38:04.228Z</time></trkpt><trkpt lat="45.329805" lon="8.8546467"><ele>107.0</ele><time>2026-03-29T12:38:05.228Z</time></trkpt><trkpt lat="45.3297283" lon="8.854635"><ele>107.0</ele><time>2026-03-29T12:38:06.229Z</time></trkpt><trkpt lat="45.3296567" lon="8.8546183"><ele>107.0</ele><time>2026-03-29T12:38:07.228Z</time></trkpt><trkpt lat="45.3295783" lon="8.8546033"><ele>106.99999999999999</ele><time>2026-03-29T12:38:08.228Z</time></trkpt><trkpt lat="45.3295" lon="8.8545883"><ele>107.0</ele><time>2026-03-29T12:38:09.228Z</time></trkpt><trkpt lat="45.3294233" lon="8.854575"><ele>106.71428571428572</ele><time>2026-03-29T12:38:10.229Z</time></trkpt><trkpt lat="45.3293533" lon="8.8545633"><ele>106.42857142857143</ele><time>2026-03-29T12:38:11.228Z</time></trkpt><trkpt lat="45.3292867" lon="8.8545517"><ele>106.14285714285714</ele><time>2026-03-29T12:38:12.228Z</time></trkpt><trkpt lat="45.3292183" lon="8.8545433"><ele>105.85714285714286</ele><time>2026-03-29T12:38:13.229Z</time></trkpt><trkpt lat="45.3291483" lon="8.854535"><ele>105.57142857142857</ele><time>2026-03-29T12:38:14.228Z</time></trkpt><trkpt lat="45.3290783" lon="8.85453"><ele>105.28571428571429</ele><time>2026-03-29T12:38:15.228Z</time></trkpt><trkpt lat="45.3290133" lon="8.8545267"><ele>105.0</ele><time>2026-03-29T12:38:16.228Z</time></trkpt><trkpt lat="45.3288883" lon="8.8545033"><ele>105.0</ele><time>2026-03-29T12:38:18.228Z</time></trkpt><trkpt lat="45.3287717" lon="8.8544183"><ele>105.0</ele><time>2026-03-29T12:38:20.228Z</time></trkpt><trkpt lat="45.328725" lon="8.8543417"><ele>105.0</ele><time>2026-03-29T12:38:21.228Z</time></trkpt><trkpt lat="45.3286833" lon="8.85426"><ele>105.0</ele><time>2026-03-29T12:38:22.228Z</time></trkpt><trkpt lat="45.3286383" lon="8.8541817"><ele>105.0</ele><time>2026-03-29T12:38:23.228Z</time></trkpt><trkpt lat="45.3285933" lon="8.8541017"><ele>105.0</ele><time>2026-03-29T12:38:24.228Z</time></trkpt><trkpt lat="45.3285467" lon="8.854015"><ele>105.28571428571429</ele><time>2026-03-29T12:38:25.228Z</time></trkpt><trkpt lat="45.3284983" lon="8.8539333"><ele>105.57142857142857</ele><time>2026-03-29T12:38:26.228Z</time></trkpt><trkpt lat="45.32845" lon="8.853855"><ele>105.85714285714286</ele><time>2026-03-29T12:38:27.228Z</time></trkpt><trkpt lat="45.3284083" lon="8.8537817"><ele>106.14285714285714</ele><time>2026-03-29T12:38:28.228Z</time></trkpt><trkpt lat="45.328365" lon="8.8537117"><ele>106.42857142857143</ele><time>2026-03-29T12:38:29.228Z</time></trkpt><trkpt lat="45.3283233" lon="8.8536367"><ele>106.71428571428572</ele><time>2026-03-29T12:38:30.228Z</time></trkpt><trkpt lat="45.32828" lon="8.8535483"><ele>107.0</ele><time>2026-03-29T12:38:31.228Z</time></trkpt><trkpt lat="45.3282233" lon="8.85347"><ele>106.83333333333333</ele><time>2026-03-29T12:38:32.228Z</time></trkpt><trkpt lat="45.328165" lon="8.8533983"><ele>106.66666666666666</ele><time>2026-03-29T12:38:33.228Z</time></trkpt><trkpt lat="45.32811" lon="8.85333"><ele>106.5</ele><time>2026-03-29T12:38:34.228Z</time></trkpt><trkpt lat="45.3280633" lon="8.8532683"><ele>106.33333333333334</ele><time>2026-03-29T12:38:35.228Z</time></trkpt><trkpt lat="45.32798" lon="8.8531617"><ele>106.16666666666667</ele><time>2026-03-29T12:38:37.229Z</time></trkpt><trkpt lat="45.32793" lon="8.8530933"><ele>106.0</ele><time>2026-03-29T12:38:40.229Z</time></trkpt><trkpt lat="45.3279117" lon="8.852995"><ele>106.0</ele><time>2026-03-29T12:43:00.228Z</time></trkpt><trkpt lat="45.327815" lon="8.85288"><ele>106.0</ele><time>2026-03-29T12:43:02.229Z</time></trkpt><trkpt lat="45.3277333" lon="8.85279"><ele>106.0</ele><time>2026-03-29T12:43:03.228Z</time></trkpt><trkpt lat="45.3276583" lon="8.8527"><ele>106.0</ele><time>2026-03-29T12:43:04.229Z</time></trkpt><trkpt lat="45.3275767" lon="8.8526033"><ele>106.0</ele><time>2026-03-29T12:43:05.228Z</time></trkpt><trkpt lat="45.3274967" lon="8.852505"><ele>106.0</ele><time>2026-03-29T12:43:06.228Z</time></trkpt><trkpt lat="45.3274167" lon="8.8524267"><ele>106.0</ele><time>2026-03-29T12:43:07.228Z</time></trkpt><trkpt lat="45.32734" lon="8.8523517"><ele>106.0</ele><time>2026-03-29T12:43:08.229Z</time></trkpt><trkpt lat="45.3272667" lon="8.8522717"><ele>106.0</ele><time>2026-03-29T12:43:09.228Z</time></trkpt><trkpt lat="45.327195" lon="8.8522"><ele>106.0</ele><time>2026-03-29T12:43:10.228Z</time></trkpt><trkpt lat="45.3271233" lon="8.852125"><ele>106.00000000000001</ele><time>2026-03-29T12:43:11.228Z</time></trkpt><trkpt lat="45.3270417" lon="8.8520583"><ele>106.0</ele><time>2026-03-29T12:43:12.229Z</time></trkpt><trkpt lat="45.3269617" lon="8.8519917"><ele>106.0</ele><time>2026-03-29T12:43:13.228Z</time></trkpt><trkpt lat="45.32688" lon="8.8519383"><ele>106.0</ele><time>2026-03-29T12:43:14.228Z</time></trkpt><trkpt lat="45.3268067" lon="8.8518933"><ele>106.00000000000001</ele><time>2026-03-29T12:43:15.228Z</time></trkpt><trkpt lat="45.326735" lon="8.8518633"><ele>106.0</ele><time>2026-03-29T12:43:16.228Z</time></trkpt><trkpt lat="45.3266667" lon="8.8518417"><ele>106.00000000000001</ele><time>2026-03-29T12:43:17.228Z</time></trkpt><trkpt lat="45.326605" lon="8.85182"><ele>106.0</ele><time>2026-03-29T12:43:18.228Z</time></trkpt><trkpt lat="45.32654" lon="8.851805"><ele>106.0</ele><time>2026-03-29T12:43:19.229Z</time></trkpt><trkpt lat="45.32647" lon="8.8517867"><ele>106.0</ele><time>2026-03-29T12:43:20.228Z</time></trkpt><trkpt lat="45.3263983" lon="8.8517683"><ele>106.00000000000001</ele><time>2026-03-29T12:43:21.228Z</time></trkpt><trkpt lat="45.32633" lon="8.8517517"><ele>106.0</ele><time>2026-03-29T12:43:22.228Z</time></trkpt><trkpt lat="45.326215" lon="8.8517183"><ele>105.6</ele><time>2026-03-29T12:43:24.228Z</time></trkpt><trkpt lat="45.32614" lon="8.8517"><ele>105.19999999999999</ele><time>2026-03-29T12:43:26.228Z</time></trkpt><trkpt lat="45.32605" lon="8.8517183"><ele>104.80000000000001</ele><time>2026-03-29T12:43:42.228Z</time></trkpt><trkpt lat="45.3259717" lon="8.8517083"><ele>104.4</ele><time>2026-03-29T12:43:44.228Z</time></trkpt><trkpt lat="45.3258667" lon="8.85168"><ele>104.0</ele><time>2026-03-29T12:43:46.228Z</time></trkpt><trkpt lat="45.32574" lon="8.8516467"><ele>104.0</ele><time>2026-03-29T12:43:48.228Z</time></trkpt><trkpt lat="45.3256683" lon="8.8516317"><ele>104.0</ele><time>2026-03-29T12:43:49.229Z</time></trkpt><trkpt lat="45.3255933" lon="8.85163"><ele>104.0</ele><time>2026-03-29T12:43:50.228Z</time></trkpt><trkpt lat="45.3255217" lon="8.8516383"><ele>104.0</ele><time>2026-03-29T12:43:51.229Z</time></trkpt><trkpt lat="45.3254483" lon="8.8516467"><ele>104.0</ele><time>2026-03-29T12:43:52.228Z</time></trkpt><trkpt lat="45.3253783" lon="8.8516617"><ele>104.0</ele><time>2026-03-29T12:43:53.228Z</time></trkpt><trkpt lat="45.3253083" lon="8.8516767"><ele>104.0</ele><time>2026-03-29T12:43:54.228Z</time></trkpt><trkpt lat="45.3252383" lon="8.8516933"><ele>104.16666666666666</ele><time>2026-03-29T12:43:55.228Z</time></trkpt><trkpt lat="45.32517" lon="8.8517117"><ele>104.33333333333333</ele><time>2026-03-29T12:43:56.228Z</time></trkpt><trkpt lat="45.3250517" lon="8.851745"><ele>104.5</ele><time>2026-03-29T12:43:58.228Z</time></trkpt><trkpt lat="45.3249517" lon="8.85176"><ele>104.66666666666666</ele><time>2026-03-29T12:44:00.228Z</time></trkpt><trkpt lat="45.32488" lon="8.8517333"><ele>104.83333333333333</ele><time>2026-03-29T12:44:02.228Z</time></trkpt><trkpt lat="45.32486" lon="8.8516433"><ele>105.0</ele><time>2026-03-29T12:44:04.228Z</time></trkpt><trkpt lat="45.324875" lon="8.85149"><ele>105.0</ele><time>2026-03-29T12:44:06.229Z</time></trkpt><trkpt lat="45.3249067" lon="8.851345"><ele>105.0</ele><time>2026-03-29T12:44:08.228Z</time></trkpt><trkpt lat="45.3249267" lon="8.8512533"><ele>105.0</ele><time>2026-03-29T12:44:09.228Z</time></trkpt><trkpt lat="45.3249517" lon="8.8511033"><ele>105.0</ele><time>2026-03-29T12:44:10.229Z</time></trkpt><trkpt lat="45.3249967" lon="8.8509317"><ele>105.0</ele><time>2026-03-29T12:44:11.228Z</time></trkpt><trkpt lat="45.3250517" lon="8.85075"><ele>105.25</ele><time>2026-03-29T12:44:12.228Z</time></trkpt><trkpt lat="45.3250917" lon="8.8505817"><ele>105.5</ele><time>2026-03-29T12:44:13.228Z</time></trkpt><trkpt lat="45.325135" lon="8.8504417"><ele>105.75</ele><time>2026-03-29T12:44:14.228Z</time></trkpt><trkpt lat="45.3251833" lon="8.8502883"><ele>106.0</ele><time>2026-03-29T12:44:15.228Z</time></trkpt><trkpt lat="45.3252367" lon="8.850145"><ele>106.00000000000001</ele><time>2026-03-29T12:44:16.228Z</time></trkpt><trkpt lat="45.325285" lon="8.8500233"><ele>106.0</ele><time>2026-03-29T12:44:17.228Z</time></trkpt><trkpt lat="45.32533" lon="8.8499133"><ele>106.0</ele><time>2026-03-29T12:44:18.228Z</time></trkpt><trkpt lat="45.3253717" lon="8.8498133"><ele>106.0</ele><time>2026-03-29T12:44:19.228Z</time></trkpt><trkpt lat="45.32541" lon="8.8497233"><ele>106.00000000000001</ele><time>2026-03-29T12:44:20.229Z</time></trkpt><trkpt lat="45.3254417" lon="8.849645"><ele>106.0</ele><time>2026-03-29T12:44:21.228Z</time></trkpt><trkpt lat="45.325485" lon="8.8495217"><ele>106.00000000000001</ele><time>2026-03-29T12:44:23.229Z</time></trkpt><trkpt lat="45.3255167" lon="8.849415"><ele>106.0</ele><time>2026-03-29T12:44:27.228Z</time></trkpt><trkpt lat="45.3255317" lon="8.8493117"><ele>106.0</ele><time>2026-03-29T12:44:29.229Z</time></trkpt><trkpt lat="45.3255383" lon="8.8491483"><ele>106.0</ele><time>2026-03-29T12:44:31.228Z</time></trkpt><trkpt lat="45.3255483" lon="8.849035"><ele>106.00000000000001</ele><time>2026-03-29T12:44:32.228Z</time></trkpt><trkpt lat="45.325535" lon="8.8489217"><ele>106.0</ele><time>2026-03-29T12:44:33.229Z</time></trkpt><trkpt lat="45.3255183" lon="8.8488033"><ele>105.6</ele><time>2026-03-29T12:44:34.228Z</time></trkpt><trkpt lat="45.3255017" lon="8.8486633"><ele>105.19999999999999</ele><time>2026-03-29T12:44:35.228Z</time></trkpt><trkpt lat="45.3254817" lon="8.8485117"><ele>104.80000000000001</ele><time>2026-03-29T12:44:36.229Z</time></trkpt><trkpt lat="45.32546" lon="8.8483567"><ele>104.4</ele><time>2026-03-29T12:44:37.228Z</time></trkpt><trkpt lat="45.3254367" lon="8.8482"><ele>104.0</ele><time>2026-03-29T12:44:38.229Z</time></trkpt><trkpt lat="45.3254183" lon="8.84805"><ele>103.80000000000001</ele><time>2026-03-29T12:44:39.229Z</time></trkpt><trkpt lat="45.3254017" lon="8.8479033"><ele>103.60000000000001</ele><time>2026-03-29T12:44:40.229Z</time></trkpt><trkpt lat="45.3253833" lon="8.8477667"><ele>103.4</ele><time>2026-03-29T12:44:41.229Z</time></trkpt><trkpt lat="45.3253667" lon="8.8476317"><ele>103.2</ele><time>2026-03-29T12:44:42.228Z</time></trkpt><trkpt lat="45.325355" lon="8.8475033"><ele>103.0</ele><time>2026-03-29T12:44:43.228Z</time></trkpt><trkpt lat="45.3253467" lon="8.8473883"><ele>103.33333333333334</ele><time>2026-03-29T12:44:44.229Z</time></trkpt><trkpt lat="45.325335" lon="8.847275"><ele>103.66666666666667</ele><time>2026-03-29T12:44:45.228Z</time></trkpt><trkpt lat="45.3253233" lon="8.8471833"><ele>104.0</ele><time>2026-03-29T12:44:46.229Z</time></trkpt><trkpt lat="45.3253017" lon="8.84704"><ele>104.33333333333334</ele><time>2026-03-29T12:44:48.228Z</time></trkpt><trkpt lat="45.3252833" lon="8.84695"><ele>104.66666666666667</ele><time>2026-03-29T12:44:51.228Z</time></trkpt><trkpt lat="45.3252067" lon="8.846955"><ele>105.0</ele><time>2026-03-29T12:44:55.228Z</time></trkpt><trkpt lat="45.325125" lon="8.8469833"><ele>105.0</ele><time>2026-03-29T12:44:57.228Z</time></trkpt><trkpt lat="45.3250367" lon="8.8470183"><ele>105.0</ele><time>2026-03-29T12:44:59.228Z</time></trkpt><trkpt lat="45.32494" lon="8.84705"><ele>105.0</ele><time>2026-03-29T12:45:01.228Z</time></trkpt><trkpt lat="45.3248317" lon="8.8470933"><ele>105.0</ele><time>2026-03-29T12:45:03.228Z</time></trkpt><trkpt lat="45.3247633" lon="8.8471133"><ele>105.0</ele><time>2026-03-29T12:45:04.228Z</time></trkpt><trkpt lat="45.324685" lon="8.8471333"><ele>105.4</ele><time>2026-03-29T12:45:05.228Z</time></trkpt><trkpt lat="45.3246" lon="8.84716"><ele>105.8</ele><time>2026-03-29T12:45:06.228Z</time></trkpt><trkpt lat="45.3245117" lon="8.8471917"><ele>106.19999999999999</ele><time>2026-03-29T12:45:07.228Z</time></trkpt><trkpt lat="45.324425" lon="8.8472233"><ele>106.6</ele><time>2026-03-29T12:45:08.228Z</time></trkpt><trkpt lat="45.3243333" lon="8.8472633"><ele>107.0</ele><time>2026-03-29T12:45:09.228Z</time></trkpt><trkpt lat="45.3242467" lon="8.847295"><ele>106.99999999999999</ele><time>2026-03-29T12:45:10.228Z</time></trkpt><trkpt lat="45.3241583" lon="8.84733"><ele>107.0</ele><time>2026-03-29T12:45:11.228Z</time></trkpt><trkpt lat="45.3240767" lon="8.84736"><ele>107.0</ele><time>2026-03-29T12:45:12.228Z</time></trkpt><trkpt lat="45.3239917" lon="8.8473917"><ele>107.0</ele><time>2026-03-29T12:45:13.228Z</time></trkpt><trkpt lat="45.3239167" lon="8.8474233"><ele>106.99999999999999</ele><time>2026-03-29T12:45:14.228Z</time></trkpt><trkpt lat="45.3238483" lon="8.847445"><ele>107.0</ele><time>2026-03-29T12:45:15.228Z</time></trkpt><trkpt lat="45.3237683" lon="8.8474717"><ele>106.6</ele><time>2026-03-29T12:45:16.228Z</time></trkpt><trkpt lat="45.323705" lon="8.847485"><ele>106.19999999999999</ele><time>2026-03-29T12:45:17.228Z</time></trkpt><trkpt lat="45.3236233" lon="8.847475"><ele>105.8</ele><time>2026-03-29T12:45:18.228Z</time></trkpt><trkpt lat="45.323515" lon="8.8474"><ele>105.4</ele><time>2026-03-29T12:45:20.229Z</time></trkpt><trkpt lat="45.3234867" lon="8.8472533"><ele>105.0</ele><time>2026-03-29T12:45:21.228Z</time></trkpt><trkpt lat="45.3234583" lon="8.847125"><ele>105.0</ele><time>2026-03-29T12:45:22.228Z</time></trkpt><trkpt lat="45.3234383" lon="8.8469833"><ele>105.0</ele><time>2026-03-29T12:45:23.228Z</time></trkpt><trkpt lat="45.3234117" lon="8.84686"><ele>105.0</ele><time>2026-03-29T12:45:24.228Z</time></trkpt><trkpt lat="45.3233783" lon="8.8467183"><ele>105.0</ele><time>2026-03-29T12:45:25.228Z</time></trkpt><trkpt lat="45.3233467" lon="8.8465767"><ele>105.0</ele><time>2026-03-29T12:45:26.228Z</time></trkpt><trkpt lat="45.3233133" lon="8.8464083"><ele>105.2</ele><time>2026-03-29T12:45:27.228Z</time></trkpt><trkpt lat="45.3232867" lon="8.846265"><ele>105.4</ele><time>2026-03-29T12:45:28.229Z</time></trkpt><trkpt lat="45.323265" lon="8.84614"><ele>105.6</ele><time>2026-03-29T12:45:29.228Z</time></trkpt><trkpt lat="45.323245" lon="8.8460283"><ele>105.8</ele><time>2026-03-29T12:45:30.229Z</time></trkpt><trkpt lat="45.32323" lon="8.8459283"><ele>106.0</ele><time>2026-03-29T12:45:31.228Z</time></trkpt><trkpt lat="45.3232083" lon="8.8457733"><ele>106.4</ele><time>2026-03-29T12:45:33.228Z</time></trkpt><trkpt lat="45.323175" lon="8.8456467"><ele>106.8</ele><time>2026-03-29T12:45:36.228Z</time></trkpt><trkpt lat="45.323095" lon="8.8456483"><ele>107.20000000000002</ele><time>2026-03-29T12:45:38.229Z</time></trkpt><trkpt lat="45.3229967" lon="8.84569"><ele>107.60000000000001</ele><time>2026-03-29T12:45:40.228Z</time></trkpt><trkpt lat="45.322905" lon="8.8457583"><ele>108.0</ele><time>2026-03-29T12:45:42.228Z</time></trkpt><trkpt lat="45.3228417" lon="8.84572"><ele>108.0</ele><time>2026-03-29T12:45:46.228Z</time></trkpt><trkpt lat="45.32287" lon="8.8456383"><ele>108.0</ele><time>2026-03-29T12:45:48.228Z</time></trkpt><trkpt lat="45.322955" lon="8.8455283"><ele>108.0</ele><time>2026-03-29T12:45:50.228Z</time></trkpt><trkpt lat="45.32301" lon="8.8454683"><ele>108.0</ele><time>2026-03-29T12:45:51.228Z</time></trkpt><trkpt lat="45.32307" lon="8.8454017"><ele>108.0</ele><time>2026-03-29T12:45:52.228Z</time></trkpt><trkpt lat="45.3231317" lon="8.8453367"><ele>108.0</ele><time>2026-03-29T12:45:53.228Z</time></trkpt><trkpt lat="45.3231983" lon="8.8452667"><ele>108.0</ele><time>2026-03-29T12:45:54.228Z</time></trkpt><trkpt lat="45.32326" lon="8.8451983"><ele>108.00000000000001</ele><time>2026-03-29T12:45:55.228Z</time></trkpt><trkpt lat="45.3233167" lon="8.845135"><ele>108.00000000000001</ele><time>2026-03-29T12:45:56.228Z</time></trkpt><trkpt lat="45.3234067" lon="8.84502"><ele>108.0</ele><time>2026-03-29T12:45:58.228Z</time></trkpt><trkpt lat="45.3234667" lon="8.8448933"><ele>108.0</ele><time>2026-03-29T12:46:00.228Z</time></trkpt><trkpt lat="45.3233967" lon="8.844755"><ele>108.4</ele><time>2026-03-29T12:46:02.228Z</time></trkpt><trkpt lat="45.3233383" lon="8.8446683"><ele>108.80000000000001</ele><time>2026-03-29T12:46:03.228Z</time></trkpt><trkpt lat="45.3232733" lon="8.84457"><ele>109.2</ele><time>2026-03-29T12:46:04.228Z</time></trkpt><trkpt lat="45.3232083" lon="8.84447"><ele>109.6</ele><time>2026-03-29T12:46:05.228Z</time></trkpt><trkpt lat="45.3231467" lon="8.8443567"><ele>110.0</ele><time>2026-03-29T12:46:06.228Z</time></trkpt><trkpt lat="45.323085" lon="8.8442267"><ele>110.2</ele><time>2026-03-29T12:46:07.228Z</time></trkpt><trkpt lat="45.3230183" lon="8.84409"><ele>110.4</ele><time>2026-03-29T12:46:08.229Z</time></trkpt><trkpt lat="45.3229483" lon="8.8439683"><ele>110.6</ele><time>2026-03-29T12:46:09.228Z</time></trkpt><trkpt lat="45.3228817" lon="8.84385"><ele>110.8</ele><time>2026-03-29T12:46:10.228Z</time></trkpt><trkpt lat="45.322825" lon="8.843735"><ele>111.0</ele><time>2026-03-29T12:46:11.228Z</time></trkpt><trkpt lat="45.32277" lon="8.8436283"><ele>111.0</ele><time>2026-03-29T12:46:12.228Z</time></trkpt><trkpt lat="45.3227217" lon="8.843525"><ele>111.0</ele><time>2026-03-29T12:46:13.228Z</time></trkpt><trkpt lat="45.322675" lon="8.843425"><ele>111.0</ele><time>2026-03-29T12:46:14.229Z</time></trkpt><trkpt lat="45.32263" lon="8.8433317"><ele>111.0</ele><time>2026-03-29T12:46:15.228Z</time></trkpt><trkpt lat="45.3225883" lon="8.8432467"><ele>111.0</ele><time>2026-03-29T12:46:16.229Z</time></trkpt><trkpt lat="45.322535" lon="8.843135"><ele>111.0</ele><time>2026-03-29T12:46:18.228Z</time></trkpt><trkpt lat="45.3225167" lon="8.8430333"><ele>111.0</ele><time>2026-03-29T12:46:21.228Z</time></trkpt><trkpt lat="45.3225517" lon="8.8429017"><ele>111.0</ele><time>2026-03-29T12:46:24.229Z</time></trkpt><trkpt lat="45.32261" lon="8.8427567"><ele>111.0</ele><time>2026-03-29T12:46:26.228Z</time></trkpt><trkpt lat="45.32265" lon="8.842665"><ele>111.0</ele><time>2026-03-29T12:46:27.229Z</time></trkpt><trkpt lat="45.322695" lon="8.842555"><ele>111.0</ele><time>2026-03-29T12:46:28.229Z</time></trkpt><trkpt lat="45.3227483" lon="8.8424333"><ele>111.4</ele><time>2026-03-29T12:46:29.228Z</time></trkpt><trkpt lat="45.3228" lon="8.8423117"><ele>111.8</ele><time>2026-03-29T12:46:30.228Z</time></trkpt><trkpt lat="45.3228517" lon="8.8421883"><ele>112.20000000000002</ele><time>2026-03-29T12:46:31.228Z</time></trkpt><trkpt lat="45.3229033" lon="8.8420633"><ele>112.60000000000001</ele><time>2026-03-29T12:46:32.228Z</time></trkpt><trkpt lat="45.3229567" lon="8.8419333"><ele>113.0</ele><time>2026-03-29T12:46:33.228Z</time></trkpt><trkpt lat="45.3230117" lon="8.8418017"><ele>112.80000000000001</ele><time>2026-03-29T12:46:34.228Z</time></trkpt><trkpt lat="45.3230617" lon="8.841675"><ele>112.60000000000001</ele><time>2026-03-29T12:46:35.228Z</time></trkpt><trkpt lat="45.3231083" lon="8.84155"><ele>112.39999999999999</ele><time>2026-03-29T12:46:36.229Z</time></trkpt><trkpt lat="45.32315" lon="8.84143"><ele>112.19999999999999</ele><time>2026-03-29T12:46:37.229Z</time></trkpt><trkpt lat="45.3231883" lon="8.841315"><ele>112.0</ele><time>2026-03-29T12:46:38.228Z</time></trkpt><trkpt lat="45.3232267" lon="8.8411983"><ele>112.0</ele><time>2026-03-29T12:46:39.228Z</time></trkpt><trkpt lat="45.3232683" lon="8.84108"><ele>111.99999999999999</ele><time>2026-03-29T12:46:40.228Z</time></trkpt><trkpt lat="45.3233083" lon="8.8409567"><ele>111.99999999999999</ele><time>2026-03-29T12:46:41.228Z</time></trkpt><trkpt lat="45.3233517" lon="8.84083"><ele>112.0</ele><time>2026-03-29T12:46:42.228Z</time></trkpt><trkpt lat="45.3233933" lon="8.8406967"><ele>112.0</ele><time>2026-03-29T12:46:43.228Z</time></trkpt><trkpt lat="45.32343" lon="8.84056"><ele>112.0</ele><time>2026-03-29T12:46:44.228Z</time></trkpt><trkpt lat="45.3234683" lon="8.8404183"><ele>111.99999999999999</ele><time>2026-03-29T12:46:45.228Z</time></trkpt><trkpt lat="45.323505" lon="8.8402767"><ele>111.99999999999999</ele><time>2026-03-29T12:46:46.228Z</time></trkpt><trkpt lat="45.3235383" lon="8.840135"><ele>112.0</ele><time>2026-03-29T12:46:47.229Z</time></trkpt><trkpt lat="45.3235683" lon="8.8399833"><ele>112.0</ele><time>2026-03-29T12:46:48.228Z</time></trkpt><trkpt lat="45.3235983" lon="8.8398333"><ele>112.0</ele><time>2026-03-29T12:46:49.228Z</time></trkpt><trkpt lat="45.3236317" lon="8.839675"><ele>112.0</ele><time>2026-03-29T12:46:50.228Z</time></trkpt><trkpt lat="45.3236633" lon="8.83951"><ele>112.0</ele><time>2026-03-29T12:46:51.228Z</time></trkpt><trkpt lat="45.3236917" lon="8.8393467"><ele>112.0</ele><time>2026-03-29T12:46:52.228Z</time></trkpt><trkpt lat="45.3237167" lon="8.8391883"><ele>112.0</ele><time>2026-03-29T12:46:53.228Z</time></trkpt><trkpt lat="45.323745" lon="8.8390383"><ele>111.99999999999999</ele><time>2026-03-29T12:46:54.228Z</time></trkpt><trkpt lat="45.3237683" lon="8.8388883"><ele>111.99999999999999</ele><time>2026-03-29T12:46:55.228Z</time></trkpt><trkpt lat="45.3237967" lon="8.8387417"><ele>112.0</ele><time>2026-03-29T12:46:56.228Z</time></trkpt><trkpt lat="45.3238233" lon="8.8385917"><ele>112.0</ele><time>2026-03-29T12:46:57.228Z</time></trkpt><trkpt lat="45.32385" lon="8.8384417"><ele>112.75</ele><time>2026-03-29T12:46:58.228Z</time></trkpt><trkpt lat="45.3238767" lon="8.8382833"><ele>113.5</ele><time>2026-03-29T12:46:59.228Z</time></trkpt><trkpt lat="45.3239067" lon="8.83812"><ele>114.25</ele><time>2026-03-29T12:47:00.229Z</time></trkpt><trkpt lat="45.3239417" lon="8.837955"><ele>115.0</ele><time>2026-03-29T12:47:01.228Z</time></trkpt><trkpt lat="45.32397" lon="8.8377933"><ele>115.2</ele><time>2026-03-29T12:47:02.228Z</time></trkpt><trkpt lat="45.3239983" lon="8.83764"><ele>115.4</ele><time>2026-03-29T12:47:03.228Z</time></trkpt><trkpt lat="45.3240183" lon="8.8374867"><ele>115.6</ele><time>2026-03-29T12:47:04.228Z</time></trkpt><trkpt lat="45.3240467" lon="8.8373433"><ele>115.8</ele><time>2026-03-29T12:47:05.228Z</time></trkpt><trkpt lat="45.3240717" lon="8.8372017"><ele>116.0</ele><time>2026-03-29T12:47:06.229Z</time></trkpt><trkpt lat="45.3240867" lon="8.8370617"><ele>115.6</ele><time>2026-03-29T12:47:07.228Z</time></trkpt><trkpt lat="45.32411" lon="8.83692"><ele>115.19999999999999</ele><time>2026-03-29T12:47:08.228Z</time></trkpt><trkpt lat="45.32413" lon="8.836795"><ele>114.80000000000001</ele><time>2026-03-29T12:47:09.228Z</time></trkpt><trkpt lat="45.3241533" lon="8.8366767"><ele>114.4</ele><time>2026-03-29T12:47:10.228Z</time></trkpt><trkpt lat="45.3241767" lon="8.8365617"><ele>114.0</ele><time>2026-03-29T12:47:11.228Z</time></trkpt><trkpt lat="45.3241983" lon="8.8364383"><ele>113.6</ele><time>2026-03-29T12:47:12.228Z</time></trkpt><trkpt lat="45.3242217" lon="8.8363217"><ele>113.2</ele><time>2026-03-29T12:47:13.229Z</time></trkpt><trkpt lat="45.3242433" lon="8.8361983"><ele>112.79999999999998</ele><time>2026-03-29T12:47:14.228Z</time></trkpt><trkpt lat="45.32426" lon="8.8360633"><ele>112.39999999999999</ele><time>2026-03-29T12:47:15.228Z</time></trkpt><trkpt lat="45.32427" lon="8.83592"><ele>112.0</ele><time>2026-03-29T12:47:16.228Z</time></trkpt><trkpt lat="45.3242667" lon="8.83578"><ele>112.0</ele><time>2026-03-29T12:47:17.228Z</time></trkpt><trkpt lat="45.3242567" lon="8.8356283"><ele>112.0</ele><time>2026-03-29T12:47:18.229Z</time></trkpt><trkpt lat="45.3242333" lon="8.8354633"><ele>112.0</ele><time>2026-03-29T12:47:19.228Z</time></trkpt><trkpt lat="45.3241983" lon="8.8352933"><ele>112.0</ele><time>2026-03-29T12:47:20.228Z</time></trkpt><trkpt lat="45.3241533" lon="8.8351117"><ele>112.5</ele><time>2026-03-29T12:47:21.228Z</time></trkpt><trkpt lat="45.32412" lon="8.834935"><ele>113.0</ele><time>2026-03-29T12:47:22.228Z</time></trkpt><trkpt lat="45.32407" lon="8.8347483"><ele>113.5</ele><time>2026-03-29T12:47:23.228Z</time></trkpt><trkpt lat="45.3240167" lon="8.8345717"><ele>114.0</ele><time>2026-03-29T12:47:24.228Z</time></trkpt><trkpt lat="45.323965" lon="8.8343983"><ele>114.0</ele><time>2026-03-29T12:47:25.228Z</time></trkpt><trkpt lat="45.3239217" lon="8.83422"><ele>114.0</ele><time>2026-03-29T12:47:26.228Z</time></trkpt><trkpt lat="45.3238733" lon="8.8340533"><ele>114.0</ele><time>2026-03-29T12:47:27.228Z</time></trkpt><trkpt lat="45.32383" lon="8.8338867"><ele>114.0</ele><time>2026-03-29T12:47:28.228Z</time></trkpt><trkpt lat="45.3237833" lon="8.8337333"><ele>113.80000000000001</ele><time>2026-03-29T12:47:29.229Z</time></trkpt><trkpt lat="45.3237383" lon="8.8335933"><ele>113.60000000000001</ele><time>2026-03-29T12:47:30.228Z</time></trkpt><trkpt lat="45.3237033" lon="8.8334617"><ele>113.4</ele><time>2026-03-29T12:47:31.228Z</time></trkpt><trkpt lat="45.323675" lon="8.8333367"><ele>113.2</ele><time>2026-03-29T12:47:32.229Z</time></trkpt><trkpt lat="45.323655" lon="8.8332167"><ele>113.0</ele><time>2026-03-29T12:47:33.229Z</time></trkpt><trkpt lat="45.3236333" lon="8.8331"><ele>112.99999999999999</ele><time>2026-03-29T12:47:34.228Z</time></trkpt><trkpt lat="45.3236183" lon="8.8330017"><ele>113.0</ele><time>2026-03-29T12:47:35.228Z</time></trkpt><trkpt lat="45.3236117" lon="8.83291"><ele>113.0</ele><time>2026-03-29T12:47:36.228Z</time></trkpt><trkpt lat="45.323615" lon="8.832805"><ele>113.0</ele><time>2026-03-29T12:47:37.228Z</time></trkpt><trkpt lat="45.3236267" lon="8.8326867"><ele>112.99999999999999</ele><time>2026-03-29T12:47:38.228Z</time></trkpt><trkpt lat="45.3236433" lon="8.8325717"><ele>113.0</ele><time>2026-03-29T12:47:39.228Z</time></trkpt><trkpt lat="45.3236567" lon="8.832455"><ele>112.66666666666666</ele><time>2026-03-29T12:47:40.228Z</time></trkpt><trkpt lat="45.3236583" lon="8.8323333"><ele>112.33333333333333</ele><time>2026-03-29T12:47:41.228Z</time></trkpt><trkpt lat="45.3236483" lon="8.8322133"><ele>112.0</ele><time>2026-03-29T12:47:42.228Z</time></trkpt><trkpt lat="45.3236317" lon="8.8320983"><ele>111.66666666666666</ele><time>2026-03-29T12:47:43.228Z</time></trkpt><trkpt lat="45.3236" lon="8.832005"><ele>111.33333333333333</ele><time>2026-03-29T12:47:44.228Z</time></trkpt><trkpt lat="45.32352" lon="8.83195"><ele>111.0</ele><time>2026-03-29T12:47:45.228Z</time></trkpt><trkpt lat="45.32345" lon="8.8319083"><ele>111.0</ele><time>2026-03-29T12:47:46.228Z</time></trkpt><trkpt lat="45.32337" lon="8.83188"><ele>111.0</ele><time>2026-03-29T12:47:47.228Z</time></trkpt><trkpt lat="45.3233017" lon="8.831825"><ele>111.0</ele><time>2026-03-29T12:47:48.228Z</time></trkpt><trkpt lat="45.3232467" lon="8.8317633"><ele>111.0</ele><time>2026-03-29T12:47:49.228Z</time></trkpt><trkpt lat="45.323205" lon="8.831675"><ele>111.0</ele><time>2026-03-29T12:47:50.228Z</time></trkpt><trkpt lat="45.32318" lon="8.8315683"><ele>111.0</ele><time>2026-03-29T12:47:51.228Z</time></trkpt><trkpt lat="45.32316" lon="8.83144"><ele>111.19999999999999</ele><time>2026-03-29T12:47:52.228Z</time></trkpt><trkpt lat="45.3231317" lon="8.8312967"><ele>111.39999999999999</ele><time>2026-03-29T12:47:53.228Z</time></trkpt><trkpt lat="45.323095" lon="8.8311433"><ele>111.6</ele><time>2026-03-29T12:47:54.229Z</time></trkpt><trkpt lat="45.3230617" lon="8.830985"><ele>111.8</ele><time>2026-03-29T12:47:55.228Z</time></trkpt><trkpt lat="45.32302" lon="8.8308533"><ele>112.0</ele><time>2026-03-29T12:47:56.229Z</time></trkpt><trkpt lat="45.3229817" lon="8.8307283"><ele>112.0</ele><time>2026-03-29T12:47:57.228Z</time></trkpt><trkpt lat="45.3229467" lon="8.8306017"><ele>111.99999999999999</ele><time>2026-03-29T12:47:58.228Z</time></trkpt><trkpt lat="45.3229167" lon="8.830475"><ele>111.99999999999999</ele><time>2026-03-29T12:47:59.228Z</time></trkpt><trkpt lat="45.322885" lon="8.83035"><ele>112.0</ele><time>2026-03-29T12:48:00.228Z</time></trkpt><trkpt lat="45.3228583" lon="8.83023"><ele>112.0</ele><time>2026-03-29T12:48:01.229Z</time></trkpt><trkpt lat="45.32283" lon="8.830125"><ele>112.0</ele><time>2026-03-29T12:48:02.228Z</time></trkpt><trkpt lat="45.3228017" lon="8.8300383"><ele>111.99999999999999</ele><time>2026-03-29T12:48:03.228Z</time></trkpt><trkpt lat="45.322735" lon="8.82993"><ele>111.99999999999999</ele><time>2026-03-29T12:48:05.228Z</time></trkpt><trkpt lat="45.3226183" lon="8.829955"><ele>112.0</ele><time>2026-03-29T12:48:07.228Z</time></trkpt><trkpt lat="45.3225217" lon="8.8300233"><ele>112.0</ele><time>2026-03-29T12:48:08.228Z</time></trkpt><trkpt lat="45.3224317" lon="8.8300767"><ele>112.0</ele><time>2026-03-29T12:48:09.228Z</time></trkpt><trkpt lat="45.3223433" lon="8.8301233"><ele>111.99999999999999</ele><time>2026-03-29T12:48:10.228Z</time></trkpt><trkpt lat="45.322245" lon="8.8301817"><ele>111.99999999999999</ele><time>2026-03-29T12:48:11.229Z</time></trkpt><trkpt lat="45.322135" lon="8.8302333"><ele>112.0</ele><time>2026-03-29T12:48:12.228Z</time></trkpt><trkpt lat="45.3220267" lon="8.8302833"><ele>112.0</ele><time>2026-03-29T12:48:13.229Z</time></trkpt><trkpt lat="45.32192" lon="8.8303433"><ele>111.75</ele><time>2026-03-29T12:48:14.228Z</time></trkpt><trkpt lat="45.3217983" lon="8.8303983"><ele>111.5</ele><time>2026-03-29T12:48:15.228Z</time></trkpt><trkpt lat="45.32168" lon="8.8304367"><ele>111.25</ele><time>2026-03-29T12:48:16.228Z</time></trkpt><trkpt lat="45.321555" lon="8.8304933"><ele>111.0</ele><time>2026-03-29T12:48:17.228Z</time></trkpt><trkpt lat="45.3214383" lon="8.8305433"><ele>111.19999999999999</ele><time>2026-03-29T12:48:18.228Z</time></trkpt><trkpt lat="45.3213217" lon="8.8306033"><ele>111.39999999999999</ele><time>2026-03-29T12:48:19.228Z</time></trkpt><trkpt lat="45.3212233" lon="8.8306533"><ele>111.6</ele><time>2026-03-29T12:48:20.229Z</time></trkpt><trkpt lat="45.3211183" lon="8.8307117"><ele>111.8</ele><time>2026-03-29T12:48:21.228Z</time></trkpt><trkpt lat="45.3210233" lon="8.8307683"><ele>112.0</ele><time>2026-03-29T12:48:22.228Z</time></trkpt><trkpt lat="45.3209417" lon="8.8308267"><ele>112.0</ele><time>2026-03-29T12:48:23.229Z</time></trkpt><trkpt lat="45.320855" lon="8.8308683"><ele>111.99999999999999</ele><time>2026-03-29T12:48:24.229Z</time></trkpt><trkpt lat="45.3207533" lon="8.8309033"><ele>111.99999999999999</ele><time>2026-03-29T12:48:25.229Z</time></trkpt><trkpt lat="45.320655" lon="8.8309467"><ele>112.0</ele><time>2026-03-29T12:48:26.228Z</time></trkpt><trkpt lat="45.32057" lon="8.8309833"><ele>112.0</ele><time>2026-03-29T12:48:27.229Z</time></trkpt><trkpt lat="45.3204817" lon="8.8310283"><ele>111.66666666666667</ele><time>2026-03-29T12:48:28.228Z</time></trkpt><trkpt lat="45.320405" lon="8.8310683"><ele>111.33333333333334</ele><time>2026-03-29T12:48:29.228Z</time></trkpt><trkpt lat="45.3203333" lon="8.8311083"><ele>111.0</ele><time>2026-03-29T12:48:30.229Z</time></trkpt><trkpt lat="45.3202683" lon="8.8311333"><ele>110.66666666666666</ele><time>2026-03-29T12:48:31.228Z</time></trkpt><trkpt lat="45.3202017" lon="8.8311383"><ele>110.33333333333333</ele><time>2026-03-29T12:48:32.229Z</time></trkpt><trkpt lat="45.3201183" lon="8.8310667"><ele>110.0</ele><time>2026-03-29T12:48:34.229Z</time></trkpt><trkpt lat="45.3200783" lon="8.8309317"><ele>109.2</ele><time>2026-03-29T12:48:36.229Z</time></trkpt><trkpt lat="45.3200567" lon="8.8307817"><ele>108.4</ele><time>2026-03-29T12:48:38.228Z</time></trkpt><trkpt lat="45.320035" lon="8.8306233"><ele>107.6</ele><time>2026-03-29T12:48:40.228Z</time></trkpt><trkpt lat="45.3200183" lon="8.8304517"><ele>106.8</ele><time>2026-03-29T12:48:42.228Z</time></trkpt><trkpt lat="45.3199967" lon="8.8303633"><ele>106.0</ele><time>2026-03-29T12:48:43.229Z</time></trkpt><trkpt lat="45.3199667" lon="8.830195"><ele>106.16666666666667</ele><time>2026-03-29T12:48:45.228Z</time></trkpt><trkpt lat="45.31991" lon="8.8300917"><ele>106.33333333333334</ele><time>2026-03-29T12:48:47.228Z</time></trkpt><trkpt lat="45.31983" lon="8.8300967"><ele>106.5</ele><time>2026-03-29T12:48:49.228Z</time></trkpt><trkpt lat="45.319915" lon="8.8301283"><ele>106.66666666666666</ele><time>2026-03-29T12:48:53.229Z</time></trkpt><trkpt lat="45.3199883" lon="8.8301033"><ele>106.83333333333333</ele><time>2026-03-29T12:48:54.228Z</time></trkpt><trkpt lat="45.3200767" lon="8.8300967"><ele>107.0</ele><time>2026-03-29T12:48:55.228Z</time></trkpt><trkpt lat="45.3201583" lon="8.83011"><ele>106.99999999999999</ele><time>2026-03-29T12:48:56.228Z</time></trkpt><trkpt lat="45.32023" lon="8.8301367"><ele>107.0</ele><time>2026-03-29T12:48:57.228Z</time></trkpt><trkpt lat="45.320295" lon="8.8301717"><ele>107.0</ele><time>2026-03-29T12:48:58.228Z</time></trkpt><trkpt lat="45.3204" lon="8.8302367"><ele>107.0</ele><time>2026-03-29T12:49:00.228Z</time></trkpt><trkpt lat="45.3204967" lon="8.8302883"><ele>106.99999999999999</ele><time>2026-03-29T12:49:02.228Z</time></trkpt><trkpt lat="45.3205683" lon="8.8303033"><ele>107.0</ele><time>2026-03-29T12:49:04.228Z</time></trkpt><trkpt lat="45.3206351" lon="8.8302967"><ele>112.0</ele><time>2026-03-29T12:49:51.212Z</time></trkpt></trkseg></trk></gpx>